Observation data for Sterling City on 04/16/2021      Previous  Date  Next       Current Mesonet Observations  Soil Data  Daily Summary Page  Observations in Plain Language
KSC1 160500Z 10008KT 13/13 A2986 RMK A01 T01310131  RH  100%=      5-min Rain = 0
KSC1 160501Z 10009KT 13/13 A2987 RMK A01 T01310131  RH  100%=      5-min Rain = 0
KSC1 160502Z 10009KT 13/13 A2987 RMK A01 T01310131  RH  100%=      5-min Rain = 0
KSC1 160503Z 10009KT 13/13 A2987 RMK A01 T01310131  RH  100%=      5-min Rain = 0
KSC1 160504Z 10008KT 13/13 A2987 RMK A01 T01310131  RH  100%=      5-min Rain = 0
KSC1 160505Z 10009KT 13/13 A2987 RMK A01 T01310131  RH  100%=      5-min Rain = 0
KSC1 160506Z 11007KT 13/13 A2987 RMK A01 T01310131  RH  100%=      5-min Rain = 0
KSC1 160507Z 11008KT 13/13 A2986 RMK A01 T01310131  RH  100%=      5-min Rain = 0
KSC1 160508Z 11008KT 13/13 A2986 RMK A01 T01310131  RH  100%=      5-min Rain = 0
KSC1 160509Z 11009KT 13/13 A2986 RMK A01 T01310131  RH  100%=      5-min Rain = 0
KSC1 160510Z 11008KT 13/13 A2986 RMK A01 T01310131  RH  100%=      5-min Rain = 0
KSC1 160511Z 10008KT 13/13 A2986 RMK A01 T01310131  RH  100%=      5-min Rain = 0
KSC1 160512Z 10007KT 13/13 A2986 RMK A01 T01310131  RH  100%=      5-min Rain = 0
KSC1 160513Z 10006KT 13/13 A2986 RMK A01 T01310131  RH  100%=      5-min Rain = 0
KSC1 160514Z 11008KT 13/13 A2986 RMK A01 T01310131  RH  100%=      5-min Rain = 0
KSC1 160515Z 10006KT 13/13 A2986 RMK A01 T01310131  RH  100%=      5-min Rain = 0
KSC1 160516Z 11007KT 13/13 A2986 RMK A01 T01310131  RH  100%=      5-min Rain = 0
KSC1 160517Z 10006KT 13/13 A2986 RMK A01 T01310131  RH  100%=      5-min Rain = 0
KSC1 160518Z 10006KT 13/13 A2986 RMK A01 T01310131  RH  100%=      5-min Rain = 0
KSC1 160519Z 09007KT 13/13 A2986 RMK A01 T01310131  RH  100%=      5-min Rain = 0
KSC1 160520Z 10007KT 13/13 A2986 RMK A01 T01310131  RH  100%=      5-min Rain = 0
KSC1 160521Z 10007KT 13/13 A2986 RMK A01 T01300130  RH  100%=      5-min Rain = 0
KSC1 160522Z 10008KT 13/13 A2986 RMK A01 T01300130  RH  100%=      5-min Rain = 0
KSC1 160523Z 09009KT 13/13 A2986 RMK A01 T01310131  RH  100%=      5-min Rain = 0
KSC1 160524Z 10009KT 13/13 A2986 RMK A01 T01300130  RH  100%=      5-min Rain = 0
KSC1 160525Z 10007KT 13/13 A2986 RMK A01 T01310131  RH  100%=      5-min Rain = 0
KSC1 160526Z 11008KT 13/13 A2986 RMK A01 T01300130  RH  100%=      5-min Rain = 0
KSC1 160527Z 11009KT 13/13 A2986 RMK A01 T01310131  RH  100%=      5-min Rain = 0
KSC1 160528Z 10008KT 13/13 A2985 RMK A01 T01300130  RH  100%=      5-min Rain = 0
KSC1 160529Z 10007KT 13/13 A2986 RMK A01 T01300130  RH  100%=      5-min Rain = 0
KSC1 160530Z 10010KT 13/13 A2986 RMK A01 T01300130  RH  100%=      5-min Rain = 0
KSC1 160531Z 11009KT 13/13 A2986 RMK A01 T01300130  RH  100%=      5-min Rain = 0
KSC1 160532Z 11010KT 13/13 A2986 RMK A01 T01290130  RH  100%=      5-min Rain = 0
KSC1 160533Z 11010KT 13/13 A2986 RMK A01 T01300130  RH  100%=      5-min Rain = 0
KSC1 160534Z 10008KT 13/13 A2986 RMK A01 T01290130  RH  100%=      5-min Rain = 0
KSC1 160535Z 10006KT 13/13 A2986 RMK A01 T01300130  RH  100%=      5-min Rain = 0
KSC1 160536Z 11007KT 13/13 A2986 RMK A01 T01300130  RH  100%=      5-min Rain = 0
KSC1 160537Z 10008KT 13/13 A2986 RMK A01 T01300130  RH  100%=      5-min Rain = 0
KSC1 160538Z 10008KT 13/13 A2986 RMK A01 T01300130  RH  100%=      5-min Rain = 0
KSC1 160539Z 11006KT 13/13 A2986 RMK A01 T01300130  RH  100%=      5-min Rain = 0
KSC1 160540Z 10005KT 13/13 A2985 RMK A01 T01300130  RH  100%=      5-min Rain = 0
KSC1 160541Z 10005KT 13/13 A2985 RMK A01 T01300130  RH  100%=      5-min Rain = 0
KSC1 160542Z 10005KT 13/13 A2985 RMK A01 T01300130  RH  100%=      5-min Rain = 0
KSC1 160543Z 10005KT 13/13 A2985 RMK A01 T01300130  RH  100%=      5-min Rain = 0
KSC1 160544Z 09006KT 13/13 A2985 RMK A01 T01300130  RH  100%=      5-min Rain = 0
KSC1 160545Z 09008KT 13/13 A2985 RMK A01 T01300130  RH  100%=      5-min Rain = 0
KSC1 160546Z 10007KT 13/13 A2985 RMK A01 T01300130  RH  100%=      5-min Rain = 0
KSC1 160547Z 09006KT 13/13 A2985 RMK A01 T01300130  RH  100%=      5-min Rain = 0
KSC1 160548Z 10006KT 13/13 A2985 RMK A01 T01300130  RH  100%=      5-min Rain = 0
KSC1 160549Z 10007KT 13/13 A2985 RMK A01 T01300130  RH  100%=      5-min Rain = 0
KSC1 160550Z 09008KT 13/13 A2985 RMK A01 T01300130  RH  100%=      5-min Rain = 0
KSC1 160551Z 09007KT 13/13 A2985 RMK A01 T01300130  RH  100%=      5-min Rain = 0
KSC1 160552Z 09008KT 13/13 A2985 RMK A01 T01290130  RH  100%=      5-min Rain = 0
KSC1 160553Z 09007KT 13/13 A2985 RMK A01 T01300130  RH  100%=      5-min Rain = 0
KSC1 160554Z 09007KT 13/13 A2985 RMK A01 T01300130  RH  100%=      5-min Rain = 0
KSC1 160555Z 10009KT 13/13 A2985 RMK A01 T01290129  RH  100%=      5-min Rain = 0
KSC1 160556Z 10009KT 13/13 A2985 RMK A01 T01300130  RH  100%=      5-min Rain = 0
KSC1 160557Z 10008KT 13/13 A2985 RMK A01 T01300130  RH  100%=      5-min Rain = 0
KSC1 160558Z 10009KT 13/13 A2985 RMK A01 T01290129  RH  100%=      5-min Rain = 0
KSC1 160559Z 10007KT 13/13 A2985 RMK A01 T01300130  RH  100%=      5-min Rain = 0
KSC1 160600Z 10006KT 13/13 A2985 RMK A01 T01290129  RH  100%=      5-min Rain = 0
KSC1 160601Z 10006KT 13/13 A2985 RMK A01 T01300130  RH  100%=      5-min Rain = 0
KSC1 160602Z 10006KT 13/13 A2985 RMK A01 T01300130  RH  100%=      5-min Rain = 0
KSC1 160603Z 10007KT 13/13 A2985 RMK A01 T01300130  RH  100%=      5-min Rain = 0
KSC1 160604Z 10008KT 13/13 A2985 RMK A01 T01300130  RH  100%=      5-min Rain = 0
KSC1 160605Z 10007KT 13/13 A2985 RMK A01 T01300130  RH  100%=      5-min Rain = 0
KSC1 160606Z 10008KT 13/13 A2985 RMK A01 T01300130  RH  100%=      5-min Rain = 0
KSC1 160607Z 10007KT 13/13 A2985 RMK A01 T01300130  RH  100%=      5-min Rain = 0
KSC1 160608Z 11008KT 13/13 A2985 RMK A01 T01300130  RH  100%=      5-min Rain = 0
KSC1 160609Z 10005KT 13/13 A2985 RMK A01 T01300130  RH  100%=      5-min Rain = 0
KSC1 160610Z 09005KT 13/13 A2985 RMK A01 T01290130  RH  100%=      5-min Rain = 0
KSC1 160611Z 09006KT 13/13 A2985 RMK A01 T01300130  RH  100%=      5-min Rain = 0
KSC1 160612Z 09006KT 13/13 A2985 RMK A01 T01290129  RH  100%=      5-min Rain = 0
KSC1 160613Z 09007KT 13/13 A2985 RMK A01 T01300130  RH  100%=      5-min Rain = 0
KSC1 160614Z 09007KT 13/13 A2985 RMK A01 T01300130  RH  100%=      5-min Rain = 0
KSC1 160615Z 10008KT 13/13 A2985 RMK A01 T01300130  RH  100%=      5-min Rain = 0
KSC1 160616Z 10007KT 13/13 A2985 RMK A01 T01290129  RH  100%=      5-min Rain = 0
KSC1 160617Z 09007KT 13/13 A2985 RMK A01 T01300130  RH  100%=      5-min Rain = 0
KSC1 160618Z 10006KT 13/13 A2985 RMK A01 T01290129  RH  100%=      5-min Rain = 0
KSC1 160619Z 09005KT 13/13 A2985 RMK A01 T01300130  RH  100%=      5-min Rain = 0
KSC1 160620Z 09006KT 13/13 A2985 RMK A01 T01300130  RH  100%=      5-min Rain = 0
KSC1 160621Z 10005KT 13/13 A2985 RMK A01 T01300130  RH  100%=      5-min Rain = 0
KSC1 160622Z 10006KT 13/13 A2985 RMK A01 T01300130  RH  100%=      5-min Rain = 0
KSC1 160623Z 11005KT 13/13 A2985 RMK A01 T01300130  RH  100%=      5-min Rain = 0
KSC1 160624Z 11006KT 13/13 A2985 RMK A01 T01300130  RH  100%=      5-min Rain = 0
KSC1 160625Z 11007KT 13/13 A2985 RMK A01 T01300130  RH  100%=      5-min Rain = 0
KSC1 160626Z 10008KT 13/13 A2985 RMK A01 T01300130  RH  100%=      5-min Rain = 0
KSC1 160627Z 10006KT 13/13 A2985 RMK A01 T01300130  RH  100%=      5-min Rain = 0
KSC1 160628Z 09007KT 13/13 A2985 RMK A01 T01300130  RH  100%=      5-min Rain = 0
KSC1 160629Z 09007KT 13/13 A2985 RMK A01 T01300130  RH  100%=      5-min Rain = 0
KSC1 160630Z 10006KT 13/13 A2985 RMK A01 T01300130  RH  100%=      5-min Rain = 0
KSC1 160631Z 10006KT 13/13 A2985 RMK A01 T01300130  RH  100%=      5-min Rain = 0
KSC1 160632Z 11006KT 13/13 A2985 RMK A01 T01300130  RH  100%=      5-min Rain = 0
KSC1 160633Z 10005KT 13/13 A2985 RMK A01 T01300130  RH  100%=      5-min Rain = 0
KSC1 160634Z 10005KT 13/13 A2985 RMK A01 T01310131  RH  100%=      5-min Rain = 0
KSC1 160635Z 10005KT 13/13 A2985 RMK A01 T01300131  RH  100%=      5-min Rain = 0
KSC1 160636Z 10005KT 13/13 A2985 RMK A01 T01300130  RH  100%=      5-min Rain = 0
KSC1 160637Z 09006KT 13/13 A2985 RMK A01 T01300130  RH  100%=      5-min Rain = 0
KSC1 160638Z 10006KT 13/13 A2985 RMK A01 T01300130  RH  100%=      5-min Rain = 0
KSC1 160639Z 10005KT 13/13 A2985 RMK A01 T01310131  RH  100%=      5-min Rain = 0
KSC1 160640Z 10005KT 13/13 A2985 RMK A01 T01300130  RH  100%=      5-min Rain = 0
KSC1 160641Z 09004KT 13/13 A2985 RMK A01 T01310131  RH  100%=      5-min Rain = 0
KSC1 160642Z 08005KT 13/13 A2985 RMK A01 T01300130  RH  100%=      5-min Rain = 0
KSC1 160643Z 08005KT 13/13 A2985 RMK A01 T01300130  RH  100%=      5-min Rain = 0
KSC1 160644Z 10005KT 13/13 A2985 RMK A01 T01300131  RH  100%=      5-min Rain = 0
KSC1 160645Z 10005KT 13/13 A2985 RMK A01 T01310131  RH  100%=      5-min Rain = 0
KSC1 160646Z 09005KT 13/13 A2985 RMK A01 T01310131  RH  100%=      5-min Rain = 0
KSC1 160647Z 09004KT 13/13 A2985 RMK A01 T01310131  RH  100%=      5-min Rain = 0
KSC1 160648Z 09004KT 13/13 A2985 RMK A01 T01300130  RH  100%=      5-min Rain = 0
KSC1 160649Z 10005KT 13/13 A2985 RMK A01 T01310131  RH  100%=      5-min Rain = 0
KSC1 160650Z 10006KT 13/13 A2985 RMK A01 T01310131  RH  100%=      5-min Rain = 0
KSC1 160651Z 09005KT 13/13 A2985 RMK A01 T01310131  RH  100%=      5-min Rain = 0
KSC1 160652Z 10004KT 13/13 A2985 RMK A01 T01310131  RH  100%=      5-min Rain = 0
KSC1 160653Z 09004KT 13/13 A2985 RMK A01 T01310131  RH  100%=      5-min Rain = 0
KSC1 160654Z 10004KT 13/13 A2985 RMK A01 T01310131  RH  100%=      5-min Rain = 0
KSC1 160655Z 11005KT 13/13 A2985 RMK A01 T01310131  RH  100%=      5-min Rain = 0
KSC1 160656Z 10005KT 13/13 A2985 RMK A01 T01310131  RH  100%=      5-min Rain = 0
KSC1 160657Z 10005KT 13/13 A2985 RMK A01 T01310131  RH  100%=      5-min Rain = 0
KSC1 160658Z 10004KT 13/13 A2985 RMK A01 T01310131  RH  100%=      5-min Rain = 0
KSC1 160659Z 10004KT 13/13 A2985 RMK A01 T01310131  RH  100%=      5-min Rain = 0
KSC1 160700Z 10004KT 13/13 A2985 RMK A01 T01310131  RH  100%=      5-min Rain = 0
KSC1 160701Z 10004KT 13/13 A2985 RMK A01 T01310131  RH  100%=      5-min Rain = 0
KSC1 160702Z 10004KT 13/13 A2985 RMK A01 T01310131  RH  100%=      5-min Rain = 0
KSC1 160703Z 09003KT 13/13 A2985 RMK A01 T01310131  RH  100%=      5-min Rain = 0
KSC1 160704Z 09003KT 13/13 A2985 RMK A01 T01310131  RH  100%=      5-min Rain = 0
KSC1 160705Z 08003KT 13/13 A2985 RMK A01 T01310131  RH  100%=      5-min Rain = 0
KSC1 160706Z 09003KT 13/13 A2985 RMK A01 T01310132  RH  100%=      5-min Rain = 0
KSC1 160707Z 10004KT 13/13 A2985 RMK A01 T01310131  RH  100%=      5-min Rain = 0
KSC1 160708Z 10003KT 13/13 A2986 RMK A01 T01310131  RH  100%=      5-min Rain = 0
KSC1 160709Z 09002KT 13/13 A2986 RMK A01 T01310132  RH  100%=      5-min Rain = 0
KSC1 160710Z 08002KT 13/13 A2986 RMK A01 T01320132  RH  100%=      5-min Rain = 0
KSC1 160711Z 09003KT 13/13 A2986 RMK A01 T01310131  RH  100%=      5-min Rain = 0
KSC1 160712Z 05001KT 13/13 A2986 RMK A01 T01310131  RH  100%=      5-min Rain = 0
KSC1 160713Z 03001KT 13/13 A2986 RMK A01 T01310132  RH  100%=      5-min Rain = 0
KSC1 160714Z 03001KT 13/13 A2986 RMK A01 T01320132  RH  100%=      5-min Rain = 0
KSC1 160715Z 05002KT 13/13 A2986 RMK A01 T01310132  RH  100%=      5-min Rain = 0
KSC1 160716Z 06002KT 13/13 A2986 RMK A01 T01310131  RH  100%=      5-min Rain = 0
KSC1 160717Z 06001KT 13/13 A2986 RMK A01 T01310131  RH  100%=      5-min Rain = 0
KSC1 160718Z 08002KT 13/13 A2986 RMK A01 T01310131  RH  100%=      5-min Rain = 0
KSC1 160719Z 08001KT 13/13 A2986 RMK A01 T01310131  RH  100%=      5-min Rain = 0
KSC1 160720Z 08001KT 13/13 A2986 RMK A01 T01310131  RH  100%=      5-min Rain = 0
KSC1 160721Z 08002KT 13/13 A2986 RMK A01 T01310132  RH  100%=      5-min Rain = 0.01
KSC1 160722Z 10002KT 13/13 A2986 RMK A01 T01310131  RH  100%=      5-min Rain = 0
KSC1 160723Z 11002KT 13/13 A2986 RMK A01 T01310131  RH  100%=      5-min Rain = 0
KSC1 160724Z 11003KT 13/13 A2986 RMK A01 T01310131  RH  100%=      5-min Rain = 0
KSC1 160725Z 12002KT 13/13 A2986 RMK A01 T01310131  RH  100%=      5-min Rain = 0
KSC1 160726Z 13002KT 13/13 A2986 RMK A01 T01310131  RH  100%=      5-min Rain = 0
KSC1 160727Z 12002KT 13/13 A2985 RMK A01 T01310131  RH  100%=      5-min Rain = 0
KSC1 160728Z 12003KT 13/13 A2985 RMK A01 T01310131  RH  100%=      5-min Rain = 0
KSC1 160729Z 12004KT 13/13 A2985 RMK A01 T01310131  RH  100%=      5-min Rain = 0
KSC1 160730Z 11005KT 13/13 A2985 RMK A01 T01320132  RH  100%=      5-min Rain = 0
KSC1 160731Z 12005KT 13/13 A2985 RMK A01 T01320132  RH  100%=      5-min Rain = 0
KSC1 160732Z 12005KT 13/13 A2985 RMK A01 T01320132  RH  100%=      5-min Rain = 0
KSC1 160733Z 12005KT 13/13 A2985 RMK A01 T01320132  RH  100%=      5-min Rain = 0
KSC1 160734Z 12006KT 13/13 A2985 RMK A01 T01320132  RH  100%=      5-min Rain = 0
KSC1 160735Z 12006KT 13/13 A2985 RMK A01 T01320132  RH  100%=      5-min Rain = 0
KSC1 160736Z 12006KT 13/13 A2985 RMK A01 T01320132  RH  100%=      5-min Rain = 0
KSC1 160737Z 12005KT 13/13 A2985 RMK A01 T01320132  RH  100%=      5-min Rain = 0
KSC1 160738Z 12004KT 13/13 A2985 RMK A01 T01320132  RH  100%=      5-min Rain = 0
KSC1 160739Z 12005KT 13/13 A2984 RMK A01 T01320132  RH  100%=      5-min Rain = 0
KSC1 160740Z 11005KT 13/13 A2984 RMK A01 T01320132  RH  100%=      5-min Rain = 0
KSC1 160741Z 12005KT 13/13 A2984 RMK A01 T01320132  RH  100%=      5-min Rain = 0
KSC1 160742Z 12006KT 13/13 A2984 RMK A01 T01320132  RH  100%=      5-min Rain = 0
KSC1 160743Z 12005KT 13/13 A2984 RMK A01 T01320132  RH  100%=      5-min Rain = 0
KSC1 160744Z 11005KT 13/13 A2984 RMK A01 T01320132  RH  100%=      5-min Rain = 0
KSC1 160745Z 12006KT 13/13 A2984 RMK A01 T01320132  RH  100%=      5-min Rain = 0
KSC1 160746Z 12007KT 13/13 A2984 RMK A01 T01320132  RH  100%=      5-min Rain = 0
KSC1 160747Z 12005KT 13/13 A2984 RMK A01 T01320132  RH  100%=      5-min Rain = 0
KSC1 160748Z 12007KT 13/13 A2984 RMK A01 T01320132  RH  100%=      5-min Rain = 0
KSC1 160749Z 12005KT 13/13 A2984 RMK A01 T01320132  RH  100%=      5-min Rain = 0
KSC1 160750Z 12004KT 13/13 A2984 RMK A01 T01320132  RH  100%=      5-min Rain = 0
KSC1 160751Z 12005KT 13/13 A2984 RMK A01 T01320132  RH  100%=      5-min Rain = 0
KSC1 160752Z 12006KT 13/13 A2984 RMK A01 T01320132  RH  100%=      5-min Rain = 0
KSC1 160753Z 12005KT 13/13 A2984 RMK A01 T01320132  RH  100%=      5-min Rain = 0
KSC1 160754Z 11006KT 13/13 A2984 RMK A01 T01320132  RH  100%=      5-min Rain = 0
KSC1 160755Z 11005KT 13/13 A2984 RMK A01 T01320132  RH  100%=      5-min Rain = 0
KSC1 160756Z 11004KT 13/13 A2984 RMK A01 T01320132  RH  100%=      5-min Rain = 0
KSC1 160757Z 11005KT 13/13 A2983 RMK A01 T01320132  RH  100%=      5-min Rain = 0
KSC1 160758Z 11005KT 13/13 A2983 RMK A01 T01320133  RH  100%=      5-min Rain = 0
KSC1 160759Z 11005KT 13/13 A2983 RMK A01 T01330133  RH  100%=      5-min Rain = 0
KSC1 160800Z 11005KT 13/13 A2983 RMK A01 T01320132  RH  100%=      5-min Rain = 0
KSC1 160801Z 10005KT 13/13 A2983 RMK A01 T01320132  RH  100%=      5-min Rain = 0
KSC1 160802Z 10004KT 13/13 A2983 RMK A01 T01320132  RH  100%=      5-min Rain = 0
KSC1 160803Z 10005KT 13/13 A2983 RMK A01 T01320132  RH  100%=      5-min Rain = 0
KSC1 160804Z 11005KT 13/13 A2983 RMK A01 T01320132  RH  100%=      5-min Rain = 0
KSC1 160805Z 10006KT 13/13 A2983 RMK A01 T01320132  RH  100%=      5-min Rain = 0
KSC1 160806Z 10006KT 13/13 A2983 RMK A01 T01320132  RH  100%=      5-min Rain = 0
KSC1 160807Z 11006KT 13/13 A2983 RMK A01 T01320132  RH  100%=      5-min Rain = 0
KSC1 160808Z 11006KT 13/13 A2982 RMK A01 T01320132  RH  100%=      5-min Rain = 0
KSC1 160809Z 10005KT 13/13 A2982 RMK A01 T01320132  RH  100%=      5-min Rain = 0
KSC1 160810Z 11006KT 13/13 A2982 RMK A01 T01320132  RH  100%=      5-min Rain = 0
KSC1 160811Z 10006KT 13/13 A2982 RMK A01 T01320132  RH  100%=      5-min Rain = 0
KSC1 160812Z 11007KT 13/13 A2982 RMK A01 T01320132  RH  100%=      5-min Rain = 0
KSC1 160813Z 10007KT 13/13 A2982 RMK A01 T01320133  RH  100%=      5-min Rain = 0
KSC1 160814Z 10006KT 13/13 A2982 RMK A01 T01330133  RH  100%=      5-min Rain = 0
KSC1 160815Z 11005KT 13/13 A2982 RMK A01 T01320132  RH  100%=      5-min Rain = 0
KSC1 160816Z 10008KT 13/13 A2982 RMK A01 T01320132  RH  100%=      5-min Rain = 0
KSC1 160817Z 10007KT 13/13 A2982 RMK A01 T01320132  RH  100%=      5-min Rain = 0
KSC1 160818Z 10007KT 13/13 A2982 RMK A01 T01320132  RH  100%=      5-min Rain = 0
KSC1 160819Z 11006KT 13/13 A2982 RMK A01 T01320132  RH  100%=      5-min Rain = 0
KSC1 160820Z 11007KT 13/13 A2982 RMK A01 T01320132  RH  100%=      5-min Rain = 0
KSC1 160821Z 11006KT 13/13 A2982 RMK A01 T01320132  RH  100%=      5-min Rain = 0
KSC1 160822Z 11004KT 13/13 A2982 RMK A01 T01330133  RH  100%=      5-min Rain = 0
KSC1 160823Z 11005KT 13/13 A2982 RMK A01 T01330133  RH  100%=      5-min Rain = 0
KSC1 160824Z 12008KT 13/13 A2982 RMK A01 T01330133  RH  100%=      5-min Rain = 0
KSC1 160825Z 11006KT 13/13 A2982 RMK A01 T01330133  RH  100%=      5-min Rain = 0
KSC1 160826Z 10004KT 13/13 A2982 RMK A01 T01330133  RH  100%=      5-min Rain = 0
KSC1 160827Z 10006KT 13/13 A2982 RMK A01 T01330133  RH  100%=      5-min Rain = 0
KSC1 160828Z 10005KT 13/13 A2982 RMK A01 T01330133  RH  100%=      5-min Rain = 0
KSC1 160829Z 11006KT 13/13 A2982 RMK A01 T01330133  RH  100%=      5-min Rain = 0
KSC1 160830Z 11006KT 13/13 A2982 RMK A01 T01330133  RH  100%=      5-min Rain = 0
KSC1 160831Z 10005KT 13/13 A2982 RMK A01 T01330133  RH  100%=      5-min Rain = 0
KSC1 160832Z 10006KT 13/13 A2982 RMK A01 T01330133  RH  100%=      5-min Rain = 0
KSC1 160833Z 11006KT 13/13 A2982 RMK A01 T01330133  RH  100%=      5-min Rain = 0
KSC1 160834Z 10006KT 13/13 A2982 RMK A01 T01330133  RH  100%=      5-min Rain = 0
KSC1 160835Z 10007KT 13/13 A2981 RMK A01 T01330133  RH  100%=      5-min Rain = 0
KSC1 160836Z 10007KT 13/13 A2981 RMK A01 T01330133  RH  100%=      5-min Rain = 0
KSC1 160837Z 10007KT 13/13 A2981 RMK A01 T01330133  RH  100%=      5-min Rain = 0
KSC1 160838Z 10008KT 13/13 A2981 RMK A01 T01330133  RH  100%=      5-min Rain = 0
KSC1 160839Z 10008KT 13/13 A2981 RMK A01 T01330133  RH  100%=      5-min Rain = 0
KSC1 160840Z 10007KT 13/13 A2981 RMK A01 T01330133  RH  100%=      5-min Rain = 0
KSC1 160841Z 10006KT 13/13 A2981 RMK A01 T01330133  RH  100%=      5-min Rain = 0
KSC1 160842Z 11008KT 13/13 A2981 RMK A01 T01330133  RH  100%=      5-min Rain = 0
KSC1 160843Z 11007KT 13/13 A2981 RMK A01 T01330133  RH  100%=      5-min Rain = 0
KSC1 160844Z 10007KT 13/13 A2981 RMK A01 T01330133  RH  100%=      5-min Rain = 0
KSC1 160845Z 10008KT 13/13 A2981 RMK A01 T01330133  RH  100%=      5-min Rain = 0
KSC1 160846Z 10008KT 13/13 A2981 RMK A01 T01330133  RH  100%=      5-min Rain = 0
KSC1 160847Z 10006KT 13/13 A2981 RMK A01 T01330133  RH  100%=      5-min Rain = 0
KSC1 160848Z 11006KT 13/13 A2981 RMK A01 T01330133  RH  100%=      5-min Rain = 0
KSC1 160849Z 11008KT 13/13 A2981 RMK A01 T01330133  RH  100%=      5-min Rain = 0
KSC1 160850Z 11007KT 13/13 A2981 RMK A01 T01330133  RH  100%=      5-min Rain = 0
KSC1 160851Z 11007KT 13/13 A2981 RMK A01 T01330133  RH  100%=      5-min Rain = 0
KSC1 160852Z 11007KT 13/13 A2981 RMK A01 T01340134  RH  100%=      5-min Rain = 0
KSC1 160853Z 11008KT 13/13 A2981 RMK A01 T01340134  RH  100%=      5-min Rain = 0
KSC1 160854Z 10007KT 13/13 A2981 RMK A01 T01340134  RH  100%=      5-min Rain = 0
KSC1 160855Z 10006KT 13/13 A2981 RMK A01 T01340134  RH  100%=      5-min Rain = 0
KSC1 160856Z 10007KT 13/13 A2981 RMK A01 T01340134  RH  100%=      5-min Rain = 0
KSC1 160857Z 10006KT 13/13 A2981 RMK A01 T01340134  RH  100%=      5-min Rain = 0
KSC1 160858Z 11007KT 13/13 A2981 RMK A01 T01340134  RH  100%=      5-min Rain = 0
KSC1 160859Z 10007KT 13/13 A2981 RMK A01 T01340134  RH  100%=      5-min Rain = 0
KSC1 160900Z 10005KT 13/13 A2981 RMK A01 T01340134  RH  100%=      5-min Rain = 0
KSC1 160901Z 10006KT 13/13 A2981 RMK A01 T01340134  RH  100%=      5-min Rain = 0
KSC1 160902Z 10006KT 13/13 A2981 RMK A01 T01340134  RH  100%=      5-min Rain = 0
KSC1 160903Z 10005KT 13/13 A2981 RMK A01 T01340134  RH  100%=      5-min Rain = 0
KSC1 160904Z 09004KT 13/13 A2981 RMK A01 T01340134  RH  100%=      5-min Rain = 0
KSC1 160905Z 09002KT 13/13 A2981 RMK A01 T01340134  RH  100%=      5-min Rain = 0
KSC1 160906Z 09003KT 13/13 A2981 RMK A01 T01340134  RH  100%=      5-min Rain = 0
KSC1 160907Z 10004KT 13/13 A2981 RMK A01 T01340134  RH  100%=      5-min Rain = 0
KSC1 160908Z 10004KT 13/13 A2981 RMK A01 T01340134  RH  100%=      5-min Rain = 0
KSC1 160909Z 09004KT 14/14 A2981 RMK A01 T01350135  RH  100%=      5-min Rain = 0
KSC1 160910Z 11004KT 14/14 A2981 RMK A01 T01350135  RH  100%=      5-min Rain = 0
KSC1 160911Z 10004KT 14/14 A2981 RMK A01 T01350135  RH  100%=      5-min Rain = 0
KSC1 160912Z 09005KT 14/14 A2981 RMK A01 T01350135  RH  100%=      5-min Rain = 0
KSC1 160913Z 10005KT 14/14 A2981 RMK A01 T01350135  RH  100%=      5-min Rain = 0
KSC1 160914Z 10005KT 14/14 A2981 RMK A01 T01350135  RH  100%=      5-min Rain = 0
KSC1 160915Z 10006KT 13/14 A2981 RMK A01 T01340135  RH  100%=      5-min Rain = 0
KSC1 160916Z 11004KT 14/14 A2981 RMK A01 T01350135  RH  100%=      5-min Rain = 0
KSC1 160917Z 10006KT 14/14 A2981 RMK A01 T01350135  RH  100%=      5-min Rain = 0
KSC1 160918Z 11006KT 14/14 A2981 RMK A01 T01350135  RH  100%=      5-min Rain = 0
KSC1 160919Z 10006KT 14/14 A2981 RMK A01 T01350135  RH  100%=      5-min Rain = 0
KSC1 160920Z 11006KT 14/14 A2981 RMK A01 T01350135  RH  100%=      5-min Rain = 0
KSC1 160921Z 10006KT 13/14 A2981 RMK A01 T01340135  RH  100%=      5-min Rain = 0
KSC1 160922Z 10005KT 14/14 A2981 RMK A01 T01350135  RH  100%=      5-min Rain = 0
KSC1 160923Z 11005KT 14/14 A2981 RMK A01 T01350135  RH  100%=      5-min Rain = 0
KSC1 160924Z 10007KT 14/14 A2981 RMK A01 T01350135  RH  100%=      5-min Rain = 0
KSC1 160925Z 10006KT 14/14 A2981 RMK A01 T01350135  RH  100%=      5-min Rain = 0
KSC1 160926Z 11006KT 14/14 A2981 RMK A01 T01350135  RH  100%=      5-min Rain = 0
KSC1 160927Z 10006KT 14/14 A2981 RMK A01 T01350135  RH  100%=      5-min Rain = 0
KSC1 160928Z 11005KT 14/14 A2981 RMK A01 T01350135  RH  100%=      5-min Rain = 0
KSC1 160929Z 11005KT 14/14 A2981 RMK A01 T01350135  RH  100%=      5-min Rain = 0
KSC1 160930Z 11004KT 14/14 A2981 RMK A01 T01350135  RH  100%=      5-min Rain = 0
KSC1 160931Z 11005KT 14/14 A2981 RMK A01 T01350135  RH  100%=      5-min Rain = 0
KSC1 160932Z 12006KT 14/14 A2981 RMK A01 T01350135  RH  100%=      5-min Rain = 0
KSC1 160933Z 12005KT 14/14 A2981 RMK A01 T01350135  RH  100%=      5-min Rain = 0
KSC1 160934Z 11004KT 14/14 A2981 RMK A01 T01350135  RH  100%=      5-min Rain = 0
KSC1 160935Z 11005KT 14/14 A2981 RMK A01 T01350135  RH  100%=      5-min Rain = 0
KSC1 160936Z 11005KT 14/14 A2981 RMK A01 T01350135  RH  100%=      5-min Rain = 0
KSC1 160937Z 11005KT 14/14 A2981 RMK A01 T01350135  RH  100%=      5-min Rain = 0
KSC1 160938Z 10005KT 14/14 A2981 RMK A01 T01350135  RH  100%=      5-min Rain = 0
KSC1 160939Z 10005KT 14/14 A2981 RMK A01 T01350135  RH  100%=      5-min Rain = 0
KSC1 160940Z 10005KT 14/14 A2981 RMK A01 T01360136  RH  100%=      5-min Rain = 0
KSC1 160941Z 11003KT 14/14 A2981 RMK A01 T01350135  RH  100%=      5-min Rain = 0
KSC1 160942Z 11003KT 14/14 A2981 RMK A01 T01350135  RH  100%=      5-min Rain = 0
KSC1 160943Z 10003KT 14/14 A2981 RMK A01 T01360136  RH  100%=      5-min Rain = 0
KSC1 160944Z 10003KT 14/14 A2981 RMK A01 T01360136  RH  100%=      5-min Rain = 0
KSC1 160945Z 11003KT 14/14 A2981 RMK A01 T01360136  RH  100%=      5-min Rain = 0
KSC1 160946Z 10003KT 14/14 A2981 RMK A01 T01360136  RH  100%=      5-min Rain = 0
KSC1 160947Z 10003KT 14/14 A2981 RMK A01 T01360136  RH  100%=      5-min Rain = 0
KSC1 160948Z 11004KT 14/14 A2981 RMK A01 T01360136  RH  100%=      5-min Rain = 0
KSC1 160949Z 10005KT 14/14 A2981 RMK A01 T01360136  RH  100%=      5-min Rain = 0
KSC1 160950Z 10004KT 14/14 A2981 RMK A01 T01360136  RH  100%=      5-min Rain = 0
KSC1 160951Z 11004KT 14/14 A2981 RMK A01 T01360136  RH  100%=      5-min Rain = 0
KSC1 160952Z 11004KT 14/14 A2981 RMK A01 T01360136  RH  100%=      5-min Rain = 0
KSC1 160953Z 11005KT 14/14 A2981 RMK A01 T01360136  RH  100%=      5-min Rain = 0
KSC1 160954Z 11004KT 14/14 A2981 RMK A01 T01360136  RH  100%=      5-min Rain = 0
KSC1 160955Z 11004KT 14/14 A2981 RMK A01 T01360136  RH  100%=      5-min Rain = 0
KSC1 160956Z 10002KT 14/14 A2981 RMK A01 T01360136  RH  100%=      5-min Rain = 0
KSC1 160957Z 11003KT 14/14 A2981 RMK A01 T01370137  RH  100%=      5-min Rain = 0
KSC1 160958Z 11003KT 14/14 A2981 RMK A01 T01360136  RH  100%=      5-min Rain = 0
KSC1 160959Z 11004KT 14/14 A2981 RMK A01 T01360136  RH  100%=      5-min Rain = 0
KSC1 161000Z 10004KT 14/14 A2981 RMK A01 T01360136  RH  100%=      5-min Rain = 0
KSC1 161001Z 11004KT 14/14 A2981 RMK A01 T01360137  RH  100%=      5-min Rain = 0
KSC1 161002Z 11004KT 14/14 A2981 RMK A01 T01360137  RH  100%=      5-min Rain = 0
KSC1 161003Z 10003KT 14/14 A2981 RMK A01 T01360136  RH  100%=      5-min Rain = 0
KSC1 161004Z 10003KT 14/14 A2981 RMK A01 T01360136  RH  100%=      5-min Rain = 0
KSC1 161005Z 10004KT 14/14 A2981 RMK A01 T01360136  RH  100%=      5-min Rain = 0
KSC1 161006Z 10003KT 14/14 A2981 RMK A01 T01360137  RH  100%=      5-min Rain = 0
KSC1 161007Z 11003KT 14/14 A2981 RMK A01 T01370137  RH  100%=      5-min Rain = 0
KSC1 161008Z 09003KT 14/14 A2981 RMK A01 T01370137  RH  100%=      5-min Rain = 0
KSC1 161009Z 09003KT 14/14 A2981 RMK A01 T01370137  RH  100%=      5-min Rain = 0
KSC1 161010Z 09003KT 14/14 A2981 RMK A01 T01370137  RH  100%=      5-min Rain = 0
KSC1 161011Z 10003KT 14/14 A2981 RMK A01 T01370137  RH  100%=      5-min Rain = 0
KSC1 161012Z 10003KT 14/14 A2981 RMK A01 T01370137  RH  100%=      5-min Rain = 0
KSC1 161013Z 10002KT 14/14 A2981 RMK A01 T01370137  RH  100%=      5-min Rain = 0
KSC1 161014Z 09003KT 14/14 A2981 RMK A01 T01370137  RH  100%=      5-min Rain = 0
KSC1 161015Z 11003KT 14/14 A2981 RMK A01 T01370137  RH  100%=      5-min Rain = 0
KSC1 161016Z 11002KT 14/14 A2981 RMK A01 T01370137  RH  100%=      5-min Rain = 0
KSC1 161017Z 11002KT 14/14 A2981 RMK A01 T01370137  RH  100%=      5-min Rain = 0
KSC1 161018Z 10003KT 14/14 A2981 RMK A01 T01370137  RH  100%=      5-min Rain = 0
KSC1 161019Z 10003KT 14/14 A2981 RMK A01 T01370137  RH  100%=      5-min Rain = 0
KSC1 161020Z 11003KT 14/14 A2981 RMK A01 T01370137  RH  100%=      5-min Rain = 0
KSC1 161021Z 11003KT 14/14 A2981 RMK A01 T01370137  RH  100%=      5-min Rain = 0
KSC1 161022Z 11003KT 14/14 A2981 RMK A01 T01370137  RH  100%=      5-min Rain = 0
KSC1 161023Z 11003KT 14/14 A2981 RMK A01 T01370137  RH  100%=      5-min Rain = 0
KSC1 161024Z 11004KT 14/14 A2981 RMK A01 T01370137  RH  100%=      5-min Rain = 0
KSC1 161025Z 12003KT 14/14 A2981 RMK A01 T01370137  RH  100%=      5-min Rain = 0
KSC1 161026Z 11004KT 14/14 A2981 RMK A01 T01370137  RH  100%=      5-min Rain = 0
KSC1 161027Z 12004KT 14/14 A2981 RMK A01 T01370137  RH  100%=      5-min Rain = 0
KSC1 161028Z 12004KT 14/14 A2981 RMK A01 T01370137  RH  100%=      5-min Rain = 0
KSC1 161029Z 12005KT 14/14 A2981 RMK A01 T01370137  RH  100%=      5-min Rain = 0
KSC1 161030Z 13004KT 14/14 A2981 RMK A01 T01370137  RH  100%=      5-min Rain = 0
KSC1 161031Z 12003KT 14/14 A2981 RMK A01 T01370138  RH  100%=      5-min Rain = 0
KSC1 161032Z 13004KT 14/14 A2981 RMK A01 T01370137  RH  100%=      5-min Rain = 0
KSC1 161033Z 12004KT 14/14 A2981 RMK A01 T01370137  RH  100%=      5-min Rain = 0
KSC1 161034Z 12003KT 14/14 A2981 RMK A01 T01370137  RH  100%=      5-min Rain = 0
KSC1 161035Z 12004KT 14/14 A2981 RMK A01 T01370137  RH  100%=      5-min Rain = 0
KSC1 161036Z 12004KT 14/14 A2981 RMK A01 T01370137  RH  100%=      5-min Rain = 0
KSC1 161037Z 12004KT 14/14 A2981 RMK A01 T01370137  RH  100%=      5-min Rain = 0
KSC1 161038Z 12004KT 14/14 A298 RMK A01 T01370137  RH  100%=      5-min Rain = 0
KSC1 161039Z 12004KT 14/14 A298 RMK A01 T01370137  RH  100%=      5-min Rain = 0
KSC1 161040Z 12004KT 14/14 A298 RMK A01 T01370137  RH  100%=      5-min Rain = 0
KSC1 161041Z 12003KT 14/14 A298 RMK A01 T01370137  RH  100%=      5-min Rain = 0
KSC1 161042Z 12004KT 14/14 A298 RMK A01 T01380138  RH  100%=      5-min Rain = 0
KSC1 161043Z 11003KT 14/14 A298 RMK A01 T01380138  RH  100%=      5-min Rain = 0
KSC1 161044Z 11003KT 14/14 A2981 RMK A01 T01380138  RH  100%=      5-min Rain = 0
KSC1 161045Z 12004KT 14/14 A2981 RMK A01 T01380138  RH  100%=      5-min Rain = 0
KSC1 161046Z 12004KT 14/14 A2981 RMK A01 T01380138  RH  100%=      5-min Rain = 0
KSC1 161047Z 12005KT 14/14 A2981 RMK A01 T01380138  RH  100%=      5-min Rain = 0
KSC1 161048Z 11004KT 14/14 A2981 RMK A01 T01380138  RH  100%=      5-min Rain = 0
KSC1 161049Z 11003KT 14/14 A2981 RMK A01 T01380138  RH  100%=      5-min Rain = 0
KSC1 161050Z 11004KT 14/14 A2981 RMK A01 T01380138  RH  100%=      5-min Rain = 0
KSC1 161051Z 11004KT 14/14 A2981 RMK A01 T01380138  RH  100%=      5-min Rain = 0
KSC1 161052Z 11003KT 14/14 A2981 RMK A01 T01380138  RH  100%=      5-min Rain = 0
KSC1 161053Z 11003KT 14/14 A2981 RMK A01 T01380138  RH  100%=      5-min Rain = 0
KSC1 161054Z 11003KT 14/14 A2981 RMK A01 T01390139  RH  100%=      5-min Rain = 0
KSC1 161055Z 10002KT 14/14 A2981 RMK A01 T01380138  RH  100%=      5-min Rain = 0
KSC1 161056Z 10003KT 14/14 A2981 RMK A01 T01380138  RH  100%=      5-min Rain = 0
KSC1 161057Z 10003KT 14/14 A298 RMK A01 T01380138  RH  100%=      5-min Rain = 0
KSC1 161058Z 11003KT 14/14 A298 RMK A01 T01380138  RH  100%=      5-min Rain = 0
KSC1 161059Z 11004KT 14/14 A298 RMK A01 T01380138  RH  100%=      5-min Rain = 0
KSC1 161100Z 11004KT 14/14 A298 RMK A01 T01380138  RH  100%=      5-min Rain = 0
KSC1 161101Z 11004KT 14/14 A298 RMK A01 T01380138  RH  100%=      5-min Rain = 0
KSC1 161102Z 11003KT 14/14 A298 RMK A01 T01380139  RH  100%=      5-min Rain = 0
KSC1 161103Z 11004KT 14/14 A298 RMK A01 T01380138  RH  100%=      5-min Rain = 0
KSC1 161104Z 11004KT 14/14 A298 RMK A01 T01390139  RH  100%=      5-min Rain = 0
KSC1 161105Z 11004KT 14/14 A298 RMK A01 T01390139  RH  100%=      5-min Rain = 0
KSC1 161106Z 11004KT 14/14 A298 RMK A01 T01390139  RH  100%=      5-min Rain = 0
KSC1 161107Z 12004KT 14/14 A298 RMK A01 T01390139  RH  100%=      5-min Rain = 0
KSC1 161108Z 11004KT 14/14 A298 RMK A01 T01390139  RH  100%=      5-min Rain = 0
KSC1 161109Z 11004KT 14/14 A298 RMK A01 T01390139  RH  100%=      5-min Rain = 0
KSC1 161110Z 11003KT 14/14 A298 RMK A01 T01390139  RH  100%=      5-min Rain = 0
KSC1 161111Z 11003KT 14/14 A298 RMK A01 T01390139  RH  100%=      5-min Rain = 0
KSC1 161112Z 11004KT 14/14 A298 RMK A01 T01390139  RH  100%=      5-min Rain = 0
KSC1 161113Z 10004KT 14/14 A298 RMK A01 T01390139  RH  100%=      5-min Rain = 0
KSC1 161114Z 11004KT 14/14 A298 RMK A01 T01390139  RH  100%=      5-min Rain = 0
KSC1 161115Z 11004KT 14/14 A298 RMK A01 T01390139  RH  100%=      5-min Rain = 0
KSC1 161116Z 11005KT 14/14 A298 RMK A01 T01390139  RH  100%=      5-min Rain = 0
KSC1 161117Z 10005KT 14/14 A298 RMK A01 T01390139  RH  100%=      5-min Rain = 0
KSC1 161118Z 11004KT 14/14 A298 RMK A01 T01390139  RH  100%=      5-min Rain = 0
KSC1 161119Z 11005KT 14/14 A298 RMK A01 T01390139  RH  100%=      5-min Rain = 0
KSC1 161120Z 11004KT 14/14 A298 RMK A01 T01390139  RH  100%=      5-min Rain = 0
KSC1 161121Z 11004KT 14/14 A298 RMK A01 T01390139  RH  100%=      5-min Rain = 0
KSC1 161122Z 11004KT 14/14 A298 RMK A01 T01390139  RH  100%=      5-min Rain = 0
KSC1 161123Z 12003KT 14/14 A298 RMK A01 T01390139  RH  100%=      5-min Rain = 0
KSC1 161124Z 12003KT 14/14 A298 RMK A01 T01390139  RH  100%=      5-min Rain = 0
KSC1 161125Z 11004KT 14/14 A298 RMK A01 T01390139  RH  100%=      5-min Rain = 0
KSC1 161126Z 12003KT 14/14 A298 RMK A01 T01390139  RH  100%=      5-min Rain = 0
KSC1 161127Z 13003KT 14/14 A298 RMK A01 T01390139  RH  100%=      5-min Rain = 0
KSC1 161128Z 13003KT 14/14 A298 RMK A01 T01390139  RH  100%=      5-min Rain = 0
KSC1 161129Z 13003KT 14/14 A298 RMK A01 T01390139  RH  100%=      5-min Rain = 0
KSC1 161130Z 13002KT 14/14 A298 RMK A01 T01390139  RH  100%=      5-min Rain = 0
KSC1 161131Z 14004KT 14/14 A298 RMK A01 T01390139  RH  100%=      5-min Rain = 0
KSC1 161132Z 13003KT 14/14 A298 RMK A01 T01390139  RH  100%=      5-min Rain = 0
KSC1 161133Z 13004KT 14/14 A298 RMK A01 T01390139  RH  100%=      5-min Rain = 0
KSC1 161134Z 13004KT 14/14 A298 RMK A01 T01390139  RH  100%=      5-min Rain = 0
KSC1 161135Z 12003KT 14/14 A298 RMK A01 T01390139  RH  100%=      5-min Rain = 0
KSC1 161136Z 12004KT 14/14 A298 RMK A01 T01390139  RH  100%=      5-min Rain = 0
KSC1 161137Z 12003KT 14/14 A298 RMK A01 T01390139  RH  100%=      5-min Rain = 0
KSC1 161138Z 11003KT 14/14 A298 RMK A01 T01390139  RH  100%=      5-min Rain = 0
KSC1 161139Z 12004KT 14/14 A298 RMK A01 T01390139  RH  100%=      5-min Rain = 0
KSC1 161140Z 11003KT 14/14 A298 RMK A01 T01390139  RH  100%=      5-min Rain = 0
KSC1 161141Z 11003KT 14/14 A298 RMK A01 T01390139  RH  100%=      5-min Rain = 0
KSC1 161142Z 11004KT 14/14 A298 RMK A01 T01390139  RH  100%=      5-min Rain = 0
KSC1 161143Z 11003KT 14/14 A298 RMK A01 T01390139  RH  100%=      5-min Rain = 0
KSC1 161144Z 11003KT 14/14 A298 RMK A01 T01390139  RH  100%=      5-min Rain = 0
KSC1 161145Z 11004KT 14/14 A298 RMK A01 T01390139  RH  100%=      5-min Rain = 0
KSC1 161146Z 10003KT 14/14 A298 RMK A01 T01390139  RH  100%=      5-min Rain = 0
KSC1 161147Z 11002KT 14/14 A298 RMK A01 T01390139  RH  100%=      5-min Rain = 0
KSC1 161148Z 11003KT 14/14 A298 RMK A01 T01400140  RH  100%=      5-min Rain = 0
KSC1 161149Z 11003KT 14/14 A298 RMK A01 T01400140  RH  100%=      5-min Rain = 0
KSC1 161150Z 11003KT 14/14 A298 RMK A01 T01400140  RH  100%=      5-min Rain = 0
KSC1 161151Z 12003KT 14/14 A298 RMK A01 T01400140  RH  100%=      5-min Rain = 0
KSC1 161152Z 10002KT 14/14 A298 RMK A01 T01400140  RH  100%=      5-min Rain = 0
KSC1 161153Z 10002KT 14/14 A298 RMK A01 T01400140  RH  100%=      5-min Rain = 0
KSC1 161154Z 11003KT 14/14 A298 RMK A01 T01400140  RH  100%=      5-min Rain = 0
KSC1 161155Z 11003KT 14/14 A298 RMK A01 T01400140  RH  100%=      5-min Rain = 0
KSC1 161156Z 09002KT 14/14 A298 RMK A01 T01400140  RH  100%=      5-min Rain = 0
KSC1 161157Z 10002KT 14/14 A298 RMK A01 T01400140  RH  100%=      5-min Rain = 0
KSC1 161158Z 11002KT 14/14 A298 RMK A01 T01400140  RH  100%=      5-min Rain = 0
KSC1 161159Z 08001KT 14/14 A298 RMK A01 T01400140  RH  100%=      5-min Rain = 0
KSC1 161200Z 10002KT 14/14 A298 RMK A01 T01400140  RH  100%=      5-min Rain = 0
KSC1 161201Z 10002KT 14/14 A298 RMK A01 T01400140  RH  100%=      5-min Rain = 0
KSC1 161202Z 10002KT 14/14 A298 RMK A01 T01400140  RH  100%=      5-min Rain = 0
KSC1 161203Z 10002KT 14/14 A298 RMK A01 T01400140  RH  100%=      5-min Rain = 0
KSC1 161204Z 11001KT 14/14 A2981 RMK A01 T01400140  RH  100%=      5-min Rain = 0
KSC1 161205Z 11001KT 14/14 A2981 RMK A01 T01400140  RH  100%=      5-min Rain = 0
KSC1 161206Z 11000KT 14/14 A2981 RMK A01 T01400140  RH  100%=      5-min Rain = 0
KSC1 161207Z 11000KT 14/14 A2981 RMK A01 T01400140  RH  100%=      5-min Rain = 0
KSC1 161208Z 11000KT 14/14 A2981 RMK A01 T01400140  RH  100%=      5-min Rain = 0
KSC1 161209Z 00000KT 14/14 A2981 RMK A01 T01400140  RH  100%=      5-min Rain = 0
KSC1 161210Z 00000KT 14/14 A2981 RMK A01 T01400140  RH  100%=      5-min Rain = 0
KSC1 161211Z 11000KT 14/14 A2981 RMK A01 T01400140  RH  100%=      5-min Rain = 0
KSC1 161212Z 12002KT 14/14 A2981 RMK A01 T01410141  RH  100%=      5-min Rain = 0
KSC1 161213Z 14003KT 14/14 A2981 RMK A01 T01410141  RH  100%=      5-min Rain = 0
KSC1 161214Z 14002KT 14/14 A2981 RMK A01 T01400141  RH  100%=      5-min Rain = 0
KSC1 161215Z 13002KT 14/14 A2981 RMK A01 T01410141  RH  100%=      5-min Rain = 0
KSC1 161216Z 13002KT 14/14 A298 RMK A01 T01400141  RH  100%=      5-min Rain = 0
KSC1 161217Z 14002KT 14/14 A2981 RMK A01 T01410141  RH  100%=      5-min Rain = 0
KSC1 161218Z 14002KT 14/14 A298 RMK A01 T01400140  RH  100%=      5-min Rain = 0
KSC1 161219Z 13003KT 14/14 A298 RMK A01 T01410141  RH  100%=      5-min Rain = 0
KSC1 161220Z 14001KT 14/14 A2981 RMK A01 T01400140  RH  100%=      5-min Rain = 0
KSC1 161221Z 13000KT 14/14 A2981 RMK A01 T01410141  RH  100%=      5-min Rain = 0
KSC1 161222Z 13001KT 14/14 A2981 RMK A01 T01410141  RH  100%=      5-min Rain = 0
KSC1 161223Z 12002KT 14/14 A2981 RMK A01 T01410141  RH  100%=      5-min Rain = 0
KSC1 161224Z 12002KT 14/14 A2981 RMK A01 T01410141  RH  100%=      5-min Rain = 0
KSC1 161225Z 12002KT 14/14 A2981 RMK A01 T01410141  RH  100%=      5-min Rain = 0
KSC1 161226Z 11001KT 14/14 A2981 RMK A01 T01410141  RH  100%=      5-min Rain = 0
KSC1 161227Z 35001KT 14/14 A2982 RMK A01 T01410141  RH  100%=      5-min Rain = 0
KSC1 161228Z 34005KT 14/14 A2982 RMK A01 T01410141  RH  100%=      5-min Rain = 0
KSC1 161229Z 34008KT 14/14 A2983 RMK A01 T01410141  RH  100%=      5-min Rain = 0
KSC1 161230Z 33011KT 14/14 A2983 RMK A01 T01410141  RH  100%=      5-min Rain = 0
KSC1 161231Z 33011KT 14/14 A2983 RMK A01 T01420142  RH  100%=      5-min Rain = 0
KSC1 161232Z 34011KT 14/14 A2983 RMK A01 T01410142  RH  100%=      5-min Rain = 0
KSC1 161233Z 34010KT 14/14 A2983 RMK A01 T01410141  RH  100%=      5-min Rain = 0
KSC1 161234Z 33009KT 14/14 A2983 RMK A01 T01410141  RH  100%=      5-min Rain = 0
KSC1 161235Z 33006KT 14/14 A2983 RMK A01 T01410141  RH  100%=      5-min Rain = 0
KSC1 161236Z 35003KT 14/14 A2983 RMK A01 T01400140  RH  100%=      5-min Rain = 0
KSC1 161237Z 34003KT 14/14 A2983 RMK A01 T01400140  RH  100%=      5-min Rain = 0
KSC1 161238Z 34007KT 14/14 A2983 RMK A01 T01400140  RH  100%=      5-min Rain = 0
KSC1 161239Z 33008KT 14/14 A2983 RMK A01 T01400140  RH  100%=      5-min Rain = 0
KSC1 161240Z 34009KT 14/14 A2984 RMK A01 T01400140  RH  100%=      5-min Rain = 0
KSC1 161241Z 33008KT 14/14 A2984 RMK A01 T01400140  RH  100%=      5-min Rain = 0
KSC1 161242Z 34007KT 14/14 A2984 RMK A01 T01400140  RH  100%=      5-min Rain = 0
KSC1 161243Z 34009KT 14/14 A2984 RMK A01 T01400140  RH  100%=      5-min Rain = 0
KSC1 161244Z 34008KT 14/14 A2984 RMK A01 T01400140  RH  100%=      5-min Rain = 0
KSC1 161245Z 34007KT 14/14 A2984 RMK A01 T01400140  RH  100%=      5-min Rain = 0
KSC1 161246Z 35005KT 14/14 A2984 RMK A01 T01400140  RH  100%=      5-min Rain = 0
KSC1 161247Z 35007KT 14/14 A2984 RMK A01 T01400140  RH  100%=      5-min Rain = 0
KSC1 161248Z 34009KT 14/14 A2984 RMK A01 T01400140  RH  100%=      5-min Rain = 0
KSC1 161249Z 34010KT 14/14 A2984 RMK A01 T01400140  RH  100%=      5-min Rain = 0
KSC1 161250Z 34009KT 14/14 A2985 RMK A01 T01400140  RH  100%=      5-min Rain = 0
KSC1 161251Z 34008KT 14/14 A2985 RMK A01 T01400140  RH  100%=      5-min Rain = 0
KSC1 161252Z 34007KT 14/14 A2985 RMK A01 T01400140  RH  100%=      5-min Rain = 0
KSC1 161253Z 34007KT 14/14 A2985 RMK A01 T01400140  RH  100%=      5-min Rain = 0
KSC1 161254Z 34008KT 14/14 A2985 RMK A01 T01400140  RH  100%=      5-min Rain = 0
KSC1 161255Z 35007KT 14/14 A2985 RMK A01 T01400140  RH  100%=      5-min Rain = 0
KSC1 161256Z 34008KT 14/14 A2985 RMK A01 T01390139  RH  100%=      5-min Rain = 0
KSC1 161257Z 34010KT 14/14 A2985 RMK A01 T01390139  RH  100%=      5-min Rain = 0
KSC1 161258Z 34010KT 14/14 A2986 RMK A01 T01380138  RH  100%=      5-min Rain = 0
KSC1 161259Z 35008KT 14/14 A2986 RMK A01 T01370138  RH  100%=      5-min Rain = 0
KSC1 161300Z 35010KT 14/14 A2986 RMK A01 T01370137  RH  100%=      5-min Rain = 0
KSC1 161301Z 34011KT 14/14 A2986 RMK A01 T01360136  RH  100%=      5-min Rain = 0
KSC1 161302Z 35009KT 13/13 A2986 RMK A01 T01340134  RH  100%=      5-min Rain = 0
KSC1 161303Z 34006KT 13/13 A2986 RMK A01 T01330133  RH  100%=      5-min Rain = 0
KSC1 161304Z 35008KT 13/13 A2986 RMK A01 T01330133  RH  100%=      5-min Rain = 0
KSC1 161305Z 34010KT 13/13 A2986 RMK A01 T01330133  RH  100%=      5-min Rain = 0
KSC1 161306Z 34010KT 13/13 A2986 RMK A01 T01320132  RH  100%=      5-min Rain = 0
KSC1 161307Z 35012KT 13/13 A2986 RMK A01 T01320132  RH  100%=      5-min Rain = 0
KSC1 161308Z 34010KT 13/13 A2986 RMK A01 T01320132  RH  100%=      5-min Rain = 0
KSC1 161309Z 34009KT 13/13 A2986 RMK A01 T01320132  RH  100%=      5-min Rain = 0
KSC1 161310Z 35009KT 13/13 A2986 RMK A01 T01320132  RH  100%=      5-min Rain = 0
KSC1 161311Z 35009KT 13/13 A2986 RMK A01 T01310131  RH  100%=      5-min Rain = 0
KSC1 161312Z 34009KT 13/13 A2986 RMK A01 T01310131  RH  100%=      5-min Rain = 0
KSC1 161313Z 35009KT 13/13 A2986 RMK A01 T01310131  RH  100%=      5-min Rain = 0
KSC1 161314Z 35007KT 13/13 A2987 RMK A01 T01310131  RH  100%=      5-min Rain = 0
KSC1 161315Z 34008KT 13/13 A2987 RMK A01 T01310131  RH  100%=      5-min Rain = 0
KSC1 161316Z 34008KT 13/13 A2987 RMK A01 T01310131  RH  100%=      5-min Rain = 0
KSC1 161317Z 35008KT 13/13 A2987 RMK A01 T01310132  RH  100%=      5-min Rain = 0
KSC1 161318Z 35008KT 13/13 A2987 RMK A01 T01310131  RH  100%=      5-min Rain = 0
KSC1 161319Z 36007KT 13/13 A2987 RMK A01 T01310131  RH  100%=      5-min Rain = 0.01
KSC1 161320Z 34008G13KT 13/13 A2987 RMK A01 T01310131  RH  100%=      5-min Rain = 0
KSC1 161321Z 34008KT 13/13 A2987 RMK A01 T01310131  RH  100%=      5-min Rain = 0
KSC1 161322Z 34007KT 13/13 A2987 RMK A01 T01310131  RH  100%=      5-min Rain = 0
KSC1 161323Z 35008KT 13/13 A2987 RMK A01 T01310131  RH  100%=      5-min Rain = 0
KSC1 161324Z 35007KT 13/13 A2987 RMK A01 T01310131  RH  100%=      5-min Rain = 0
KSC1 161325Z 35005KT 13/13 A2987 RMK A01 T01310131  RH  100%=      5-min Rain = 0
KSC1 161326Z 34006KT 13/13 A2987 RMK A01 T01320132  RH  100%=      5-min Rain = 0
KSC1 161327Z 34009KT 13/13 A2987 RMK A01 T01320132  RH  100%=      5-min Rain = 0
KSC1 161328Z 35008KT 13/13 A2987 RMK A01 T01320132  RH  100%=      5-min Rain = 0
KSC1 161329Z 35007KT 13/13 A2987 RMK A01 T01320132  RH  100%=      5-min Rain = 0
KSC1 161330Z 35008KT 13/13 A2987 RMK A01 T01320132  RH  100%=      5-min Rain = 0
KSC1 161331Z 34007KT 13/13 A2987 RMK A01 T01320132  RH  100%=      5-min Rain = 0
KSC1 161332Z 35008KT 13/13 A2988 RMK A01 T01320132  RH  100%=      5-min Rain = 0
KSC1 161333Z 35007KT 13/13 A2988 RMK A01 T01320132  RH  100%=      5-min Rain = 0
KSC1 161334Z 34008KT 13/13 A2988 RMK A01 T01330133  RH  100%=      5-min Rain = 0
KSC1 161335Z 35007KT 13/13 A2988 RMK A01 T01330133  RH  100%=      5-min Rain = 0
KSC1 161336Z 35007KT 13/13 A2988 RMK A01 T01330133  RH  100%=      5-min Rain = 0
KSC1 161337Z 34008KT 13/13 A2988 RMK A01 T01330133  RH  100%=      5-min Rain = 0
KSC1 161338Z 35008KT 13/13 A2988 RMK A01 T01330133  RH  100%=      5-min Rain = 0
KSC1 161339Z 35007KT 13/13 A2988 RMK A01 T01330133  RH  100%=      5-min Rain = 0
KSC1 161340Z 35007KT 13/13 A2988 RMK A01 T01330133  RH  100%=      5-min Rain = 0
KSC1 161341Z 35006KT 13/13 A2988 RMK A01 T01330133  RH  100%=      5-min Rain = 0
KSC1 161342Z 35005KT 13/13 A2988 RMK A01 T01330134  RH  100%=      5-min Rain = 0
KSC1 161343Z 35005KT 13/13 A2988 RMK A01 T01340134  RH  100%=      5-min Rain = 0
KSC1 161344Z 34004KT 13/13 A2988 RMK A01 T01340134  RH  100%=      5-min Rain = 0
KSC1 161345Z 35005KT 13/14 A2988 RMK A01 T01340135  RH  100%=      5-min Rain = 0
KSC1 161346Z 35007KT 13/13 A2988 RMK A01 T01340134  RH  100%=      5-min Rain = 0
KSC1 161347Z 34008KT 13/13 A2988 RMK A01 T01340134  RH  100%=      5-min Rain = 0
KSC1 161348Z 34006KT 13/13 A2988 RMK A01 T01340134  RH  100%=      5-min Rain = 0
KSC1 161349Z 35007KT 13/13 A2987 RMK A01 T01340134  RH  100%=      5-min Rain = 0
KSC1 161350Z 35006KT 14/14 A2987 RMK A01 T01350135  RH  100%=      5-min Rain = 0
KSC1 161351Z 00006KT 14/14 A2987 RMK A01 T01350135  RH  100%=      5-min Rain = 0
KSC1 161352Z 35006KT 14/14 A2987 RMK A01 T01360136  RH  100%=      5-min Rain = 0
KSC1 161353Z 34006KT 14/14 A2987 RMK A01 T01360136  RH  100%=      5-min Rain = 0
KSC1 161354Z 35005KT 14/14 A2987 RMK A01 T01370137  RH  100%=      5-min Rain = 0
KSC1 161355Z 34005KT 14/14 A2987 RMK A01 T01370137  RH  100%=      5-min Rain = 0
KSC1 161356Z 35007KT 14/14 A2987 RMK A01 T01380138  RH  100%=      5-min Rain = 0
KSC1 161357Z 00007KT 14/14 A2988 RMK A01 T01380138  RH  100%=      5-min Rain = 0
KSC1 161358Z 35007KT 14/14 A2988 RMK A01 T01380138  RH  100%=      5-min Rain = 0
KSC1 161359Z 36008KT 14/14 A2988 RMK A01 T01380138  RH  100%=      5-min Rain = 0
KSC1 161400Z 36005KT 14/14 A2988 RMK A01 T01370138  RH  100%=      5-min Rain = 0
KSC1 161401Z 00006KT 14/14 A2988 RMK A01 T01380138  RH  100%=      5-min Rain = 0
KSC1 161402Z 35006KT 14/14 A2988 RMK A01 T01380138  RH  100%=      5-min Rain = 0
KSC1 161403Z 35007KT 14/14 A2988 RMK A01 T01380138  RH  100%=      5-min Rain = 0
KSC1 161404Z 34008KT 14/14 A2988 RMK A01 T01380138  RH  100%=      5-min Rain = 0
KSC1 161405Z 34008KT 14/14 A2988 RMK A01 T01380138  RH  100%=      5-min Rain = 0
KSC1 161406Z 33006KT 14/14 A2988 RMK A01 T01380138  RH  100%=      5-min Rain = 0
KSC1 161407Z 33006KT 14/14 A2988 RMK A01 T01390139  RH  100%=      5-min Rain = 0
KSC1 161408Z 34006KT 14/14 A2988 RMK A01 T01390139  RH  100%=      5-min Rain = 0
KSC1 161409Z 33008KT 14/14 A2988 RMK A01 T01390139  RH  100%=      5-min Rain = 0
KSC1 161410Z 34009KT 14/14 A2988 RMK A01 T01380138  RH  100%=      5-min Rain = 0
KSC1 161411Z 34008KT 14/14 A2988 RMK A01 T01370137  RH  100%=      5-min Rain = 0
KSC1 161412Z 34008KT 14/14 A2988 RMK A01 T01360136  RH  100%=      5-min Rain = 0
KSC1 161413Z 33008KT 14/14 A2988 RMK A01 T01360136  RH  100%=      5-min Rain = 0
KSC1 161414Z 33009KT 14/14 A2988 RMK A01 T01350135  RH  100%=      5-min Rain = 0
KSC1 161415Z 34009KT 13/13 A2988 RMK A01 T01340134  RH  100%=      5-min Rain = 0
KSC1 161416Z 34007KT 13/13 A2988 RMK A01 T01330133  RH  100%=      5-min Rain = 0
KSC1 161417Z 34007KT 13/13 A2988 RMK A01 T01330133  RH  100%=      5-min Rain = 0
KSC1 161418Z 34007KT 13/13 A2988 RMK A01 T01330133  RH  100%=      5-min Rain = 0
KSC1 161419Z 34010KT 13/13 A2988 RMK A01 T01340134  RH  100%=      5-min Rain = 0
KSC1 161420Z 34008KT 13/13 A2988 RMK A01 T01330133  RH  100%=      5-min Rain = 0
KSC1 161421Z 34008KT 13/13 A2988 RMK A01 T01330133  RH  100%=      5-min Rain = 0
KSC1 161422Z 34008KT 13/13 A2988 RMK A01 T01330133  RH  100%=      5-min Rain = 0
KSC1 161423Z 35008KT 13/13 A2988 RMK A01 T01330133  RH  100%=      5-min Rain = 0
KSC1 161424Z 35009KT 13/13 A2988 RMK A01 T01330133  RH  100%=      5-min Rain = 0
KSC1 161425Z 35007KT 13/13 A2988 RMK A01 T01320132  RH  100%=      5-min Rain = 0
KSC1 161426Z 35008KT 13/13 A2988 RMK A01 T01320132  RH  100%=      5-min Rain = 0
KSC1 161427Z 35007KT 13/13 A2988 RMK A01 T01320132  RH  100%=      5-min Rain = 0
KSC1 161428Z 34005KT 13/13 A2988 RMK A01 T01310132  RH  100%=      5-min Rain = 0
KSC1 161429Z 34007KT 13/13 A2988 RMK A01 T01320132  RH  100%=      5-min Rain = 0
KSC1 161430Z 34009KT 13/13 A2988 RMK A01 T01320132  RH  100%=      5-min Rain = 0
KSC1 161431Z 34008KT 13/13 A2988 RMK A01 T01320132  RH  100%=      5-min Rain = 0
KSC1 161432Z 34008KT 13/13 A2988 RMK A01 T01320132  RH  100%=      5-min Rain = 0
KSC1 161433Z 35010KT 13/13 A2988 RMK A01 T01330133  RH  100%=      5-min Rain = 0
KSC1 161434Z 35009KT 13/13 A2988 RMK A01 T01330133  RH  100%=      5-min Rain = 0
KSC1 161435Z 36007KT 13/13 A2988 RMK A01 T01320132  RH  100%=      5-min Rain = 0
KSC1 161436Z 34007KT 13/13 A2988 RMK A01 T01320132  RH  100%=      5-min Rain = 0
KSC1 161437Z 35009KT 13/13 A2988 RMK A01 T01330133  RH  100%=      5-min Rain = 0
KSC1 161438Z 34009KT 13/13 A2988 RMK A01 T01340134  RH  100%=      5-min Rain = 0
KSC1 161439Z 34009KT 13/13 A2988 RMK A01 T01340134  RH  100%=      5-min Rain = 0
KSC1 161440Z 34009KT 13/13 A2988 RMK A01 T01330133  RH  100%=      5-min Rain = 0
KSC1 161441Z 34009KT 13/13 A2988 RMK A01 T01330133  RH  100%=      5-min Rain = 0
KSC1 161442Z 33010KT 13/13 A2988 RMK A01 T01320132  RH  100%=      5-min Rain = 0
KSC1 161443Z 34008KT 13/13 A2989 RMK A01 T01320132  RH  100%=      5-min Rain = 0
KSC1 161444Z 34010KT 13/13 A2988 RMK A01 T01320132  RH  100%=      5-min Rain = 0
KSC1 161445Z 34010KT 13/13 A2989 RMK A01 T01320132  RH  100%=      5-min Rain = 0
KSC1 161446Z 34008KT 13/13 A2989 RMK A01 T01320132  RH  100%=      5-min Rain = 0
KSC1 161447Z 34009KT 13/13 A2989 RMK A01 T01310131  RH  100%=      5-min Rain = 0
KSC1 161448Z 35009KT 13/13 A2989 RMK A01 T01310131  RH  100%=      5-min Rain = 0
KSC1 161449Z 35009KT 13/13 A2989 RMK A01 T01310132  RH  100%=      5-min Rain = 0
KSC1 161450Z 00009KT 13/13 A2989 RMK A01 T01320132  RH  100%=      5-min Rain = 0
KSC1 161451Z 36008KT 13/13 A2988 RMK A01 T01320132  RH  100%=      5-min Rain = 0
KSC1 161452Z 36007KT 13/13 A2989 RMK A01 T01320132  RH  100%=      5-min Rain = 0
KSC1 161453Z 35007KT 13/13 A2989 RMK A01 T01330133  RH  100%=      5-min Rain = 0
KSC1 161454Z 35007KT 13/13 A2989 RMK A01 T01330133  RH  100%=      5-min Rain = 0
KSC1 161455Z 00007KT 13/13 A2989 RMK A01 T01330133  RH  100%=      5-min Rain = 0
KSC1 161456Z 01007KT 13/13 A2989 RMK A01 T01330133  RH  100%=      5-min Rain = 0
KSC1 161457Z 00007KT 13/13 A2989 RMK A01 T01330134  RH  100%=      5-min Rain = 0
KSC1 161458Z 01006KT 13/13 A2989 RMK A01 T01330133  RH  100%=      5-min Rain = 0
KSC1 161459Z 01006KT 13/13 A2989 RMK A01 T01330133  RH  100%=      5-min Rain = 0
KSC1 161500Z 02005KT 13/13 A2989 RMK A01 T01330133  RH  100%=      5-min Rain = 0
KSC1 161501Z 36006G11KT 14/14 A2989 RMK A01 T01350135  RH  100%=      5-min Rain = 0
KSC1 161502Z 35007KT 14/14 A2989 RMK A01 T01360136  RH  100%=      5-min Rain = 0
KSC1 161503Z 35007KT 14/14 A2989 RMK A01 T01360136  RH  100%=      5-min Rain = 0
KSC1 161504Z 00007KT 14/14 A2989 RMK A01 T01350136  RH  100%=      5-min Rain = 0
KSC1 161505Z 36008KT 14/14 A2989 RMK A01 T01360136  RH  100%=      5-min Rain = 0
KSC1 161506Z 35008KT 14/14 A2989 RMK A01 T01360136  RH  100%=      5-min Rain = 0
KSC1 161507Z 35007KT 14/14 A2988 RMK A01 T01360136  RH  100%=      5-min Rain = 0
KSC1 161508Z 00007KT 14/14 A2989 RMK A01 T01350135  RH  100%=      5-min Rain = 0
KSC1 161509Z 01007KT 14/14 A2989 RMK A01 T01360136  RH  100%=      5-min Rain = 0
KSC1 161510Z 34006KT 14/14 A2989 RMK A01 T01370137  RH  100%=      5-min Rain = 0
KSC1 161511Z 36006KT 14/14 A2989 RMK A01 T01380138  RH  100%=      5-min Rain = 0
KSC1 161512Z 36007KT 14/14 A2989 RMK A01 T01380138  RH  100%=      5-min Rain = 0
KSC1 161513Z 35006KT 14/14 A2989 RMK A01 T01380138  RH  100%=      5-min Rain = 0
KSC1 161514Z 36007KT 14/14 A2989 RMK A01 T01390139  RH  100%=      5-min Rain = 0
KSC1 161515Z 36008KT 14/14 A2989 RMK A01 T01380138  RH  100%=      5-min Rain = 0
KSC1 161516Z 36008KT 14/14 A2989 RMK A01 T01380138  RH  100%=      5-min Rain = 0
KSC1 161517Z 00008KT 14/14 A2989 RMK A01 T01370137  RH  100%=      5-min Rain = 0
KSC1 161518Z 35006KT 14/14 A2989 RMK A01 T01370138  RH  100%=      5-min Rain = 0
KSC1 161519Z 35007KT 14/14 A2989 RMK A01 T01380138  RH  100%=      5-min Rain = 0
KSC1 161520Z 34008KT 14/14 A2989 RMK A01 T01380138  RH  100%=      5-min Rain = 0
KSC1 161521Z 34009KT 14/14 A2988 RMK A01 T01380138  RH  100%=      5-min Rain = 0
KSC1 161522Z 34009KT 14/14 A2989 RMK A01 T01380138  RH  100%=      5-min Rain = 0
KSC1 161523Z 35007KT 14/14 A2989 RMK A01 T01370137  RH  100%=      5-min Rain = 0
KSC1 161524Z 35008KT 14/14 A2989 RMK A01 T01380138  RH  100%=      5-min Rain = 0
KSC1 161525Z 36007KT 14/14 A2988 RMK A01 T01380138  RH  100%=      5-min Rain = 0
KSC1 161526Z 35007KT 14/14 A2989 RMK A01 T01380138  RH  100%=      5-min Rain = 0
KSC1 161527Z 34008KT 14/14 A2989 RMK A01 T01390139  RH  100%=      5-min Rain = 0
KSC1 161528Z 35006KT 14/14 A2989 RMK A01 T01390139  RH  100%=      5-min Rain = 0
KSC1 161529Z 35008KT 14/14 A2989 RMK A01 T01390139  RH  100%=      5-min Rain = 0
KSC1 161530Z 35006KT 14/14 A2989 RMK A01 T01400140  RH  100%=      5-min Rain = 0
KSC1 161531Z 34007KT 14/14 A2989 RMK A01 T01410141  RH  100%=      5-min Rain = 0
KSC1 161532Z 34007KT 14/14 A2989 RMK A01 T01420142  RH  100%=      5-min Rain = 0
KSC1 161533Z 34009KT 14/14 A2989 RMK A01 T01410141  RH  100%=      5-min Rain = 0
KSC1 161534Z 35008KT 14/14 A2989 RMK A01 T01400140  RH  100%=      5-min Rain = 0
KSC1 161535Z 35007KT 14/14 A2989 RMK A01 T01400140  RH  100%=      5-min Rain = 0
KSC1 161536Z 34006KT 14/14 A2989 RMK A01 T01390140  RH  100%=      5-min Rain = 0
KSC1 161537Z 34008KT 14/14 A2989 RMK A01 T01400140  RH  100%=      5-min Rain = 0
KSC1 161538Z 34008KT 14/14 A2989 RMK A01 T01400140  RH  100%=      5-min Rain = 0
KSC1 161539Z 35009KT 14/14 A2989 RMK A01 T01390139  RH  100%=      5-min Rain = 0
KSC1 161540Z 34008KT 14/14 A2989 RMK A01 T01390139  RH  100%=      5-min Rain = 0
KSC1 161541Z 34009KT 14/14 A2989 RMK A01 T01380138  RH  100%=      5-min Rain = 0
KSC1 161542Z 35009KT 14/14 A2989 RMK A01 T01380138  RH  100%=      5-min Rain = 0
KSC1 161543Z 35009KT 14/14 A2989 RMK A01 T01380138  RH  100%=      5-min Rain = 0
KSC1 161544Z 35009KT 14/14 A2989 RMK A01 T01380138  RH  100%=      5-min Rain = 0
KSC1 161545Z 35010KT 14/14 A2989 RMK A01 T01380138  RH  100%=      5-min Rain = 0
KSC1 161546Z 34009KT 14/14 A2989 RMK A01 T01370138  RH  100%=      5-min Rain = 0
KSC1 161547Z 34010KT 14/14 A2989 RMK A01 T01370137  RH  100%=      5-min Rain = 0
KSC1 161548Z 34008KT 14/14 A2989 RMK A01 T01370137  RH  100%=      5-min Rain = 0
KSC1 161549Z 34009KT 14/14 A2989 RMK A01 T01370137  RH  100%=      5-min Rain = 0
KSC1 161550Z 34008KT 14/14 A2989 RMK A01 T01370137  RH  100%=      5-min Rain = 0
KSC1 161551Z 36007KT 14/14 A2989 RMK A01 T01370137  RH  100%=      5-min Rain = 0
KSC1 161552Z 01008KT 14/14 A2989 RMK A01 T01380138  RH  100%=      5-min Rain = 0
KSC1 161553Z 35009KT 14/14 A2989 RMK A01 T01390139  RH  100%=      5-min Rain = 0
KSC1 161554Z 00009KT 14/14 A2989 RMK A01 T01390139  RH  100%=      5-min Rain = 0
KSC1 161555Z 00010KT 14/14 A2989 RMK A01 T01380138  RH  100%=      5-min Rain = 0
KSC1 161556Z 36010KT 14/14 A2989 RMK A01 T01370137  RH  100%=      5-min Rain = 0
KSC1 161557Z 35011KT 14/14 A2989 RMK A01 T01370137  RH  100%=      5-min Rain = 0
KSC1 161558Z 36010KT 14/14 A2989 RMK A01 T01370137  RH  100%=      5-min Rain = 0
KSC1 161559Z 34006KT 14/14 A2989 RMK A01 T01360136  RH  100%=      5-min Rain = 0
KSC1 161600Z 34007KT 14/14 A2989 RMK A01 T01360136  RH  100%=      5-min Rain = 0
KSC1 161601Z 34007KT 14/14 A2989 RMK A01 T01370137  RH  100%=      5-min Rain = 0
KSC1 161602Z 36008KT 14/14 A2989 RMK A01 T01380138  RH  100%=      5-min Rain = 0
KSC1 161603Z 35007KT 14/14 A2989 RMK A01 T01380138  RH  100%=      5-min Rain = 0
KSC1 161604Z 34009KT 14/14 A2989 RMK A01 T01370137  RH  100%=      5-min Rain = 0
KSC1 161605Z 34009KT 14/14 A2989 RMK A01 T01370137  RH  100%=      5-min Rain = 0
KSC1 161606Z 35006KT 14/14 A2989 RMK A01 T01370137  RH  100%=      5-min Rain = 0
KSC1 161607Z 00009KT 14/14 A2989 RMK A01 T01370137  RH  100%=      5-min Rain = 0
KSC1 161608Z 35008KT 14/14 A2989 RMK A01 T01370137  RH  100%=      5-min Rain = 0
KSC1 161609Z 34008KT 14/14 A2989 RMK A01 T01360136  RH  100%=      5-min Rain = 0
KSC1 161610Z 34010KT 14/14 A2989 RMK A01 T01360136  RH  100%=      5-min Rain = 0
KSC1 161611Z 34008KT 14/14 A2989 RMK A01 T01370137  RH  100%=      5-min Rain = 0
KSC1 161612Z 35007KT 14/14 A2989 RMK A01 T01360136  RH  100%=      5-min Rain = 0
KSC1 161613Z 34006KT 14/14 A2989 RMK A01 T01360136  RH  100%=      5-min Rain = 0
KSC1 161614Z 36008KT 14/14 A2989 RMK A01 T01360137  RH  100%=      5-min Rain = 0
KSC1 161615Z 34005KT 14/14 A2989 RMK A01 T01370137  RH  100%=      5-min Rain = 0
KSC1 161616Z 33007KT 14/14 A2989 RMK A01 T01370137  RH  100%=      5-min Rain = 0
KSC1 161617Z 34008KT 14/14 A2989 RMK A01 T01360136  RH  100%=      5-min Rain = 0
KSC1 161618Z 35009KT 14/14 A2989 RMK A01 T01360136  RH  100%=      5-min Rain = 0
KSC1 161619Z 35010KT 14/14 A2989 RMK A01 T01350135  RH  100%=      5-min Rain = 0
KSC1 161620Z 35010KT 13/13 A2989 RMK A01 T01340134  RH  100%=      5-min Rain = 0
KSC1 161621Z 35010KT 13/13 A2989 RMK A01 T01330134  RH  100%=      5-min Rain = 0
KSC1 161622Z 35007KT 13/13 A2989 RMK A01 T01330133  RH  100%=      5-min Rain = 0
KSC1 161623Z 35006KT 13/13 A2989 RMK A01 T01330133  RH  100%=      5-min Rain = 0
KSC1 161624Z 36008KT 13/13 A299 RMK A01 T01320132  RH  100%=      5-min Rain = 0
KSC1 161625Z 00008KT 13/13 A299 RMK A01 T01320132  RH  100%=      5-min Rain = 0
KSC1 161626Z 34011KT 13/13 A299 RMK A01 T01320132  RH  100%=      5-min Rain = 0
KSC1 161627Z 34010KT 13/13 A299 RMK A01 T01300130  RH  100%=      5-min Rain = 0
KSC1 161628Z 34010KT 13/13 A299 RMK A01 T01290129  RH  100%=      5-min Rain = 0
KSC1 161629Z 33010KT 13/13 A299 RMK A01 T01290129  RH  100%=      5-min Rain = 0
KSC1 161630Z 34008KT 13/13 A299 RMK A01 T01280128  RH  100%=      5-min Rain = 0
KSC1 161631Z 36009KT 13/13 A299 RMK A01 T01280128  RH  100%=      5-min Rain = 0
KSC1 161632Z 35008KT 13/13 A299 RMK A01 T01280128  RH  100%=      5-min Rain = 0
KSC1 161633Z 35008KT 13/13 A299 RMK A01 T01280128  RH  100%=      5-min Rain = 0
KSC1 161634Z 35008KT 13/13 A299 RMK A01 T01280128  RH  100%=      5-min Rain = 0
KSC1 161635Z 34006KT 13/13 A299 RMK A01 T01280128  RH  100%=      5-min Rain = 0
KSC1 161636Z 34005G10KT 13/13 A299 RMK A01 T01290129  RH  100%=      5-min Rain = 0
KSC1 161637Z 34008KT 13/13 A299 RMK A01 T01300130  RH  100%=      5-min Rain = 0
KSC1 161638Z 34009KT 13/13 A299 RMK A01 T01300130  RH  100%=      5-min Rain = 0
KSC1 161639Z 35008KT 13/13 A299 RMK A01 T01300130  RH  100%=      5-min Rain = 0
KSC1 161640Z 35008KT 13/13 A299 RMK A01 T01300130  RH  100%=      5-min Rain = 0
KSC1 161641Z 36008KT 13/13 A299 RMK A01 T01300130  RH  100%=      5-min Rain = 0
KSC1 161642Z 34007KT 13/13 A299 RMK A01 T01300130  RH  100%=      5-min Rain = 0
KSC1 161643Z 34009KT 13/13 A299 RMK A01 T01300130  RH  100%=      5-min Rain = 0
KSC1 161644Z 35008KT 13/13 A299 RMK A01 T01300131  RH  100%=      5-min Rain = 0
KSC1 161645Z 35008KT 13/13 A299 RMK A01 T01310131  RH  100%=      5-min Rain = 0
KSC1 161646Z 35008KT 13/13 A2991 RMK A01 T01310131  RH  100%=      5-min Rain = 0
KSC1 161647Z 34011KT 13/13 A2991 RMK A01 T01310131  RH  100%=      5-min Rain = 0
KSC1 161648Z 35011KT 13/13 A2991 RMK A01 T01310131  RH  100%=      5-min Rain = 0
KSC1 161649Z 35010KT 13/13 A2991 RMK A01 T01300130  RH  100%=      5-min Rain = 0
KSC1 161650Z 34007KT 13/13 A2991 RMK A01 T01290129  RH  100%=      5-min Rain = 0
KSC1 161651Z 34009KT 13/13 A2991 RMK A01 T01290129  RH  100%=      5-min Rain = 0
KSC1 161652Z 34010KT 13/13 A2991 RMK A01 T01290129  RH  100%=      5-min Rain = 0
KSC1 161653Z 35009G14KT 13/13 A2991 RMK A01 T01300130  RH  100%=      5-min Rain = 0
KSC1 161654Z 35010KT 13/13 A2991 RMK A01 T01290130  RH  100%=      5-min Rain = 0
KSC1 161655Z 35009KT 13/13 A2991 RMK A01 T01290129  RH  100%=      5-min Rain = 0
KSC1 161656Z 35009KT 13/13 A2991 RMK A01 T01290129  RH  100%=      5-min Rain = 0
KSC1 161657Z 34009KT 13/13 A2991 RMK A01 T01280128  RH  100%=      5-min Rain = 0
KSC1 161658Z 34008KT 13/13 A2991 RMK A01 T01280128  RH  100%=      5-min Rain = 0
KSC1 161659Z 33007KT 13/13 A2991 RMK A01 T01280128  RH  100%=      5-min Rain = 0
KSC1 161700Z 34007KT 13/13 A2991 RMK A01 T01290129  RH  100%=      5-min Rain = 0
KSC1 161701Z 34007KT 13/13 A2991 RMK A01 T01300130  RH  100%=      5-min Rain = 0
KSC1 161702Z 33008KT 13/13 A2991 RMK A01 T01300130  RH  100%=      5-min Rain = 0
KSC1 161703Z 33009KT 13/13 A2991 RMK A01 T01290130  RH  100%=      5-min Rain = 0
KSC1 161704Z 34008KT 13/13 A2991 RMK A01 T01290129  RH  100%=      5-min Rain = 0
KSC1 161705Z 35009KT 13/13 A2991 RMK A01 T01290129  RH  100%=      5-min Rain = 0
KSC1 161706Z 35009KT 13/13 A2991 RMK A01 T01290129  RH  100%=      5-min Rain = 0
KSC1 161707Z 34009KT 13/13 A2991 RMK A01 T01300130  RH  100%=      5-min Rain = 0
KSC1 161708Z 35008KT 13/13 A2991 RMK A01 T01300130  RH  100%=      5-min Rain = 0
KSC1 161709Z 35008KT 13/13 A2991 RMK A01 T01300130  RH  100%=      5-min Rain = 0
KSC1 161710Z 35008KT 13/13 A2991 RMK A01 T01300130  RH  100%=      5-min Rain = 0
KSC1 161711Z 35009KT 13/13 A2991 RMK A01 T01290129  RH  100%=      5-min Rain = 0
KSC1 161712Z 35008KT 13/13 A2991 RMK A01 T01290129  RH  100%=      5-min Rain = 0
KSC1 161713Z 34011KT 13/13 A2991 RMK A01 T01280128  RH  100%=      5-min Rain = 0
KSC1 161714Z 33009KT 13/13 A2991 RMK A01 T01270127  RH  100%=      5-min Rain = 0
KSC1 161715Z 34009KT 13/13 A2991 RMK A01 T01270127  RH  100%=      5-min Rain = 0
KSC1 161716Z 35010KT 13/13 A2991 RMK A01 T01280128  RH  100%=      5-min Rain = 0
KSC1 161717Z 00009KT 13/13 A2991 RMK A01 T01280128  RH  100%=      5-min Rain = 0
KSC1 161718Z 36008KT 13/13 A2991 RMK A01 T01280128  RH  100%=      5-min Rain = 0
KSC1 161719Z 36008KT 13/13 A2991 RMK A01 T01280128  RH  100%=      5-min Rain = 0
KSC1 161720Z 00010KT 13/13 A2991 RMK A01 T01280128  RH  100%=      5-min Rain = 0
KSC1 161721Z 36009KT 13/13 A2991 RMK A01 T01270127  RH  100%=      5-min Rain = 0
KSC1 161722Z 34010KT 13/13 A2991 RMK A01 T01270127  RH  100%=      5-min Rain = 0
KSC1 161723Z 34010KT 13/13 A2991 RMK A01 T01270127  RH  100%=      5-min Rain = 0
KSC1 161724Z 34010KT 13/13 A2991 RMK A01 T01260126  RH  100%=      5-min Rain = 0
KSC1 161725Z 35011KT 13/13 A2991 RMK A01 T01260127  RH  100%=      5-min Rain = 0
KSC1 161726Z 35011KT 13/13 A2991 RMK A01 T01260126  RH  100%=      5-min Rain = 0
KSC1 161727Z 35010KT 13/13 A2991 RMK A01 T01250125  RH  100%=      5-min Rain = 0
KSC1 161728Z 35007KT 12/12 A2991 RMK A01 T01240124  RH  100%=      5-min Rain = 0
KSC1 161729Z 35009KT 12/12 A2991 RMK A01 T01240124  RH  100%=      5-min Rain = 0
KSC1 161730Z 36007KT 12/12 A2991 RMK A01 T01240124  RH  100%=      5-min Rain = 0
KSC1 161731Z 35008KT 12/12 A2992 RMK A01 T01240124  RH  100%=      5-min Rain = 0
KSC1 161732Z 34009KT 12/12 A2992 RMK A01 T01240124  RH  100%=      5-min Rain = 0
KSC1 161733Z 35006KT 13/13 A2992 RMK A01 T01250125  RH  100%=      5-min Rain = 0
KSC1 161734Z 33007KT 12/13 A2992 RMK A01 T01240125  RH  100%=      5-min Rain = 0
KSC1 161735Z 33009KT 12/12 A2992 RMK A01 T01240124  RH  100%=      5-min Rain = 0
KSC1 161736Z 34009KT 12/12 A2992 RMK A01 T01240124  RH  100%=      5-min Rain = 0
KSC1 161737Z 34009KT 12/13 A2992 RMK A01 T01240125  RH  100%=      5-min Rain = 0
KSC1 161738Z 35007KT 12/12 A2992 RMK A01 T01240124  RH  100%=      5-min Rain = 0
KSC1 161739Z 36009KT 12/13 A2992 RMK A01 T01240125  RH  100%=      5-min Rain = 0
KSC1 161740Z 35010KT 13/13 A2992 RMK A01 T01250125  RH  100%=      5-min Rain = 0
KSC1 161741Z 34008KT 12/12 A2992 RMK A01 T01240124  RH  100%=      5-min Rain = 0
KSC1 161742Z 34010KT 13/13 A2992 RMK A01 T01250125  RH  100%=      5-min Rain = 0
KSC1 161743Z 35012KT 12/13 A2992 RMK A01 T01240125  RH  100%=      5-min Rain = 0
KSC1 161744Z 35011KT 12/12 A2992 RMK A01 T01240124  RH  100%=      5-min Rain = 0
KSC1 161745Z 00011KT 12/12 A2992 RMK A01 T01240124  RH  100%=      5-min Rain = 0
KSC1 161746Z 00011KT 12/12 A2992 RMK A01 T01230123  RH  100%=      5-min Rain = 0
KSC1 161747Z 36008KT 12/12 A2992 RMK A01 T01230123  RH  100%=      5-min Rain = 0
KSC1 161748Z 35008KT 12/12 A2992 RMK A01 T01230123  RH  100%=      5-min Rain = 0
KSC1 161749Z 35008KT 12/12 A2992 RMK A01 T01230123  RH  100%=      5-min Rain = 0
KSC1 161750Z 00009KT 12/12 A2992 RMK A01 T01230123  RH  100%=      5-min Rain = 0
KSC1 161751Z 01008KT 12/12 A2992 RMK A01 T01230123  RH  100%=      5-min Rain = 0
KSC1 161752Z 01010KT 12/12 A2992 RMK A01 T01240124  RH  100%=      5-min Rain = 0
KSC1 161753Z 36010KT 12/12 A2992 RMK A01 T01240124  RH  100%=      5-min Rain = 0
KSC1 161754Z 34011KT 12/12 A2992 RMK A01 T01240124  RH  100%=      5-min Rain = 0
KSC1 161755Z 35008KT 12/12 A2992 RMK A01 T01240124  RH  100%=      5-min Rain = 0
KSC1 161756Z 35009KT 13/13 A2992 RMK A01 T01250125  RH  100%=      5-min Rain = 0
KSC1 161757Z 36009KT 13/13 A2992 RMK A01 T01250125  RH  100%=      5-min Rain = 0
KSC1 161758Z 36009KT 13/13 A2992 RMK A01 T01250125  RH  100%=      5-min Rain = 0
KSC1 161759Z 35010KT 13/13 A2992 RMK A01 T01260126  RH  100%=      5-min Rain = 0
KSC1 161800Z 35009KT 13/13 A2992 RMK A01 T01260125  RH  100%=      5-min Rain = 0
KSC1 161801Z 35010KT 13/12 A2992 RMK A01 T01260124  RH  099%=      5-min Rain = 0
KSC1 161802Z 35011KT 13/12 A2992 RMK A01 T01260122  RH  098%=      5-min Rain = 0
KSC1 161803Z 36010KT 13/12 A2992 RMK A01 T01260122  RH  097%=      5-min Rain = 0
KSC1 161804Z 36009KT 13/12 A2992 RMK A01 T01260123  RH  098%=      5-min Rain = 0
KSC1 161805Z 35009KT 13/12 A2992 RMK A01 T01270123  RH  097%=      5-min Rain = 0
KSC1 161806Z 00009KT 13/12 A2992 RMK A01 T01270124  RH  098%=      5-min Rain = 0
KSC1 161807Z 35007KT 13/12 A2992 RMK A01 T01270124  RH  098%=      5-min Rain = 0
KSC1 161808Z 35008KT 13/12 A2992 RMK A01 T01280123  RH  097%=      5-min Rain = 0
KSC1 161809Z 34007KT 13/12 A2992 RMK A01 T01280123  RH  097%=      5-min Rain = 0
KSC1 161810Z 33007KT 13/13 A2992 RMK A01 T01280125  RH  098%=      5-min Rain = 0
KSC1 161811Z 33006KT 13/13 A2992 RMK A01 T01300127  RH  098%=      5-min Rain = 0
KSC1 161812Z 33006KT 13/13 A2991 RMK A01 T01310126  RH  097%=      5-min Rain = 0
KSC1 161813Z 34009KT 13/13 A2991 RMK A01 T01320125  RH  095%=      5-min Rain = 0
KSC1 161814Z 34008KT 13/12 A2991 RMK A01 T01320124  RH  095%=      5-min Rain = 0
KSC1 161815Z 34007KT 13/12 A2991 RMK A01 T01310121  RH  094%=      5-min Rain = 0
KSC1 161816Z 33008KT 13/12 A2991 RMK A01 T01300123  RH  096%=      5-min Rain = 0
KSC1 161817Z 33005KT 13/12 A2991 RMK A01 T01300124  RH  096%=      5-min Rain = 0
KSC1 161818Z 34005KT 13/13 A2991 RMK A01 T01310126  RH  097%=      5-min Rain = 0
KSC1 161819Z 35005KT 13/13 A2992 RMK A01 T01320127  RH  097%=      5-min Rain = 0
KSC1 161820Z 35006KT 13/12 A2991 RMK A01 T01330124  RH  094%=      5-min Rain = 0
KSC1 161821Z 34004KT 13/13 A2991 RMK A01 T01330125  RH  095%=      5-min Rain = 0
KSC1 161822Z 33008KT 13/13 A2991 RMK A01 T01330125  RH  095%=      5-min Rain = 0
KSC1 161823Z 33007KT 13/13 A2991 RMK A01 T01330125  RH  095%=      5-min Rain = 0
KSC1 161824Z 33009KT 13/12 A2991 RMK A01 T01340124  RH  094%=      5-min Rain = 0
KSC1 161825Z 33007KT 13/12 A2991 RMK A01 T01330124  RH  094%=      5-min Rain = 0
KSC1 161826Z 34009KT 13/12 A2991 RMK A01 T01330124  RH  094%=      5-min Rain = 0
KSC1 161827Z 34008KT 13/12 A2991 RMK A01 T01330124  RH  094%=      5-min Rain = 0
KSC1 161828Z 34008KT 13/12 A2991 RMK A01 T01330124  RH  094%=      5-min Rain = 0
KSC1 161829Z 34006G11KT 13/13 A2991 RMK A01 T01340126  RH  095%=      5-min Rain = 0
KSC1 161830Z 35010KT 14/13 A2991 RMK A01 T01350126  RH  094%=      5-min Rain = 0
KSC1 161831Z 35010KT 14/12 A2991 RMK A01 T01360122  RH  092%=      5-min Rain = 0
KSC1 161832Z 34009KT 14/12 A2991 RMK A01 T01350124  RH  093%=      5-min Rain = 0
KSC1 161833Z 35010KT 14/12 A2991 RMK A01 T01350124  RH  093%=      5-min Rain = 0
KSC1 161834Z 35009G14KT 14/12 A2991 RMK A01 T01350122  RH  092%=      5-min Rain = 0
KSC1 161835Z 35010KT 14/12 A2991 RMK A01 T01350123  RH  092%=      5-min Rain = 0
KSC1 161836Z 35008KT 14/12 A2991 RMK A01 T01350124  RH  093%=      5-min Rain = 0
KSC1 161837Z 34007KT 14/13 A2991 RMK A01 T01360125  RH  093%=      5-min Rain = 0
KSC1 161838Z 35007KT 14/13 A2992 RMK A01 T01380125  RH  092%=      5-min Rain = 0
KSC1 161839Z 34009KT 14/13 A2991 RMK A01 T01380125  RH  092%=      5-min Rain = 0
KSC1 161840Z 33009KT 14/13 A2991 RMK A01 T01390125  RH  091%=      5-min Rain = 0
KSC1 161841Z 34009KT 14/12 A2991 RMK A01 T01390123  RH  090%=      5-min Rain = 0
KSC1 161842Z 33011KT 14/12 A2991 RMK A01 T01380123  RH  091%=      5-min Rain = 0
KSC1 161843Z 35011KT 14/12 A2991 RMK A01 T01380123  RH  091%=      5-min Rain = 0
KSC1 161844Z 34010KT 14/12 A2992 RMK A01 T01370123  RH  091%=      5-min Rain = 0
KSC1 161845Z 34010KT 14/12 A2992 RMK A01 T01370122  RH  091%=      5-min Rain = 0
KSC1 161846Z 33010KT 14/12 A2991 RMK A01 T01360123  RH  092%=      5-min Rain = 0
KSC1 161847Z 35008KT 14/13 A2991 RMK A01 T01360125  RH  093%=      5-min Rain = 0
KSC1 161848Z 34008KT 14/12 A2991 RMK A01 T01370124  RH  092%=      5-min Rain = 0
KSC1 161849Z 35010KT 14/13 A2991 RMK A01 T01380126  RH  092%=      5-min Rain = 0
KSC1 161850Z 35012KT 14/12 A2991 RMK A01 T01380123  RH  090%=      5-min Rain = 0
KSC1 161851Z 34009KT 14/12 A2992 RMK A01 T01370122  RH  090%=      5-min Rain = 0
KSC1 161852Z 34007KT 14/12 A2992 RMK A01 T01370124  RH  092%=      5-min Rain = 0
KSC1 161853Z 36012G17KT 14/12 A2992 RMK A01 T01370123  RH  091%=      5-min Rain = 0
KSC1 161854Z 35011KT 14/12 A2991 RMK A01 T01370121  RH  090%=      5-min Rain = 0
KSC1 161855Z 35012KT 14/12 A2991 RMK A01 T01370120  RH  090%=      5-min Rain = 0
KSC1 161856Z 34011KT 14/12 A2992 RMK A01 T01360121  RH  091%=      5-min Rain = 0
KSC1 161857Z 34011KT 14/12 A2992 RMK A01 T01370121  RH  090%=      5-min Rain = 0
KSC1 161858Z 34014KT 14/12 A2992 RMK A01 T01380120  RH  089%=      5-min Rain = 0
KSC1 161859Z 34014KT 14/12 A2992 RMK A01 T01370119  RH  089%=      5-min Rain = 0
KSC1 161900Z 35013KT 14/12 A2992 RMK A01 T01370119  RH  089%=      5-min Rain = 0
KSC1 161901Z 34013KT 14/12 A2992 RMK A01 T01370119  RH  089%=      5-min Rain = 0
KSC1 161902Z 34013KT 14/12 A2992 RMK A01 T01370118  RH  089%=      5-min Rain = 0
KSC1 161903Z 33012KT 14/12 A2992 RMK A01 T01360118  RH  088%=      5-min Rain = 0
KSC1 161904Z 34012KT 14/12 A2992 RMK A01 T01360117  RH  088%=      5-min Rain = 0
KSC1 161905Z 34011KT 14/12 A2992 RMK A01 T01360118  RH  089%=      5-min Rain = 0
KSC1 161906Z 34013KT 14/12 A2992 RMK A01 T01360117  RH  088%=      5-min Rain = 0
KSC1 161907Z 34014KT 14/12 A2992 RMK A01 T01350117  RH  089%=      5-min Rain = 0
KSC1 161908Z 34014KT 14/12 A2992 RMK A01 T01350116  RH  088%=      5-min Rain = 0
KSC1 161909Z 34015KT 14/12 A2992 RMK A01 T01350115  RH  088%=      5-min Rain = 0
KSC1 161910Z 35014G19KT 13/12 A2992 RMK A01 T01340115  RH  088%=      5-min Rain = 0
KSC1 161911Z 35012KT 13/12 A2992 RMK A01 T01340116  RH  089%=      5-min Rain = 0
KSC1 161912Z 36010KT 14/12 A2992 RMK A01 T01350115  RH  088%=      5-min Rain = 0
KSC1 161913Z 34012KT 14/12 A2992 RMK A01 T01350115  RH  088%=      5-min Rain = 0
KSC1 161914Z 35009KT 14/12 A2992 RMK A01 T01350116  RH  088%=      5-min Rain = 0
KSC1 161915Z 35012G17KT 14/12 A2992 RMK A01 T01360116  RH  088%=      5-min Rain = 0
KSC1 161916Z 34014KT 14/11 A2992 RMK A01 T01360114  RH  087%=      5-min Rain = 0
KSC1 161917Z 35012KT 14/11 A2992 RMK A01 T01360113  RH  086%=      5-min Rain = 0
KSC1 161918Z 35010KT 14/12 A2992 RMK A01 T01360115  RH  087%=      5-min Rain = 0
KSC1 161919Z 35010KT 14/12 A2992 RMK A01 T01380115  RH  086%=      5-min Rain = 0
KSC1 161920Z 35012KT 14/12 A2992 RMK A01 T01380115  RH  086%=      5-min Rain = 0
KSC1 161921Z 35010KT 14/12 A2992 RMK A01 T01380115  RH  086%=      5-min Rain = 0
KSC1 161922Z 36011KT 14/12 A2992 RMK A01 T01380115  RH  086%=      5-min Rain = 0
KSC1 161923Z 35010G15KT 14/12 A2992 RMK A01 T01380115  RH  086%=      5-min Rain = 0
KSC1 161924Z 35010KT 14/12 A2992 RMK A01 T01370115  RH  086%=      5-min Rain = 0
KSC1 161925Z 34010KT 14/12 A2992 RMK A01 T01380115  RH  086%=      5-min Rain = 0
KSC1 161926Z 35013KT 14/11 A2993 RMK A01 T01370113  RH  085%=      5-min Rain = 0
KSC1 161927Z 35013KT 14/11 A2992 RMK A01 T01370112  RH  085%=      5-min Rain = 0
KSC1 161928Z 35013KT 14/11 A2992 RMK A01 T01370112  RH  084%=      5-min Rain = 0
KSC1 161929Z 35013KT 14/11 A2992 RMK A01 T01370110  RH  084%=      5-min Rain = 0
KSC1 161930Z 36012KT 14/11 A2992 RMK A01 T01360111  RH  084%=      5-min Rain = 0
KSC1 161931Z 36011KT 14/11 A2992 RMK A01 T01360109  RH  084%=      5-min Rain = 0
KSC1 161932Z 35009KT 14/11 A2992 RMK A01 T01360110  RH  084%=      5-min Rain = 0
KSC1 161933Z 00010KT 14/11 A2992 RMK A01 T01370111  RH  084%=      5-min Rain = 0
KSC1 161934Z 35009KT 14/11 A2992 RMK A01 T01380110  RH  083%=      5-min Rain = 0
KSC1 161935Z 34010KT 14/11 A2992 RMK A01 T01390111  RH  084%=      5-min Rain = 0
KSC1 161936Z 35011KT 14/11 A2992 RMK A01 T01390111  RH  083%=      5-min Rain = 0
KSC1 161937Z 35011KT 14/11 A2992 RMK A01 T01390109  RH  082%=      5-min Rain = 0
KSC1 161938Z 36009KT 14/11 A2992 RMK A01 T01400109  RH  082%=      5-min Rain = 0
KSC1 161939Z 00013KT 14/11 A2993 RMK A01 T01400109  RH  082%=      5-min Rain = 0
KSC1 161940Z 36012KT 14/11 A2993 RMK A01 T01400107  RH  081%=      5-min Rain = 0
KSC1 161941Z 00009G14KT 14/11 A2993 RMK A01 T01400108  RH  081%=      5-min Rain = 0
KSC1 161942Z 00011KT 14/11 A2992 RMK A01 T01410107  RH  080%=      5-min Rain = 0
KSC1 161943Z 01012KT 14/11 A2992 RMK A01 T01410106  RH  079%=      5-min Rain = 0
KSC1 161944Z 35011KT 14/11 A2992 RMK A01 T01410106  RH  079%=      5-min Rain = 0
KSC1 161945Z 35009G14KT 14/11 A2992 RMK A01 T01410105  RH  079%=      5-min Rain = 0
KSC1 161946Z 00011G17KT 14/11 A2992 RMK A01 T01420106  RH  079%=      5-min Rain = 0
KSC1 161947Z 36011KT 14/11 A2992 RMK A01 T01420106  RH  079%=      5-min Rain = 0
KSC1 161948Z 35012KT 14/11 A2992 RMK A01 T01420106  RH  079%=      5-min Rain = 0
KSC1 161949Z 35011KT 14/10 A2992 RMK A01 T01420104  RH  078%=      5-min Rain = 0
KSC1 161950Z 35007KT 14/11 A2991 RMK A01 T01410105  RH  079%=      5-min Rain = 0
KSC1 161951Z 36011G16KT 14/11 A2991 RMK A01 T01420106  RH  079%=      5-min Rain = 0
KSC1 161952Z 35012KT 14/11 A2991 RMK A01 T01430105  RH  078%=      5-min Rain = 0
KSC1 161953Z 36011KT 14/11 A2991 RMK A01 T01420105  RH  078%=      5-min Rain = 0
KSC1 161954Z 36009G14KT 14/11 A2991 RMK A01 T01420106  RH  079%=      5-min Rain = 0
KSC1 161955Z 01011KT 14/11 A2991 RMK A01 T01420106  RH  079%=      5-min Rain = 0
KSC1 161956Z 36011KT 14/11 A2992 RMK A01 T01430107  RH  079%=      5-min Rain = 0
KSC1 161957Z 36015KT 14/11 A2992 RMK A01 T01430105  RH  078%=      5-min Rain = 0
KSC1 161958Z 36013KT 14/11 A2992 RMK A01 T01430105  RH  078%=      5-min Rain = 0
KSC1 161959Z 34014KT 14/11 A2992 RMK A01 T01420106  RH  079%=      5-min Rain = 0
KSC1 162000Z 35012KT 14/10 A2992 RMK A01 T01410104  RH  078%=      5-min Rain = 0
KSC1 162001Z 36010G16KT 14/11 A2992 RMK A01 T01410106  RH  079%=      5-min Rain = 0
KSC1 162002Z 00012KT 14/11 A2992 RMK A01 T01410105  RH  079%=      5-min Rain = 0
KSC1 162003Z 35011KT 14/10 A2992 RMK A01 T01420104  RH  078%=      5-min Rain = 0
KSC1 162004Z 35009KT 14/11 A2992 RMK A01 T01420106  RH  079%=      5-min Rain = 0
KSC1 162005Z 00010KT 14/11 A2992 RMK A01 T01430106  RH  079%=      5-min Rain = 0
KSC1 162006Z 00010KT 14/10 A2992 RMK A01 T01430104  RH  077%=      5-min Rain = 0
KSC1 162007Z 35011G16KT 14/11 A2992 RMK A01 T01440105  RH  078%=      5-min Rain = 0
KSC1 162008Z 35011KT 14/10 A2992 RMK A01 T01440104  RH  077%=      5-min Rain = 0
KSC1 162009Z 35012KT 14/10 A2992 RMK A01 T01440104  RH  077%=      5-min Rain = 0
KSC1 162010Z 00012KT 14/10 A2992 RMK A01 T01440102  RH  076%=      5-min Rain = 0
KSC1 162011Z 35010KT 14/10 A2992 RMK A01 T01430104  RH  077%=      5-min Rain = 0
KSC1 162012Z 35009KT 14/10 A2992 RMK A01 T01440104  RH  077%=      5-min Rain = 0
KSC1 162013Z 35011G16KT 15/11 A2992 RMK A01 T01450105  RH  077%=      5-min Rain = 0
KSC1 162014Z 36010KT 15/10 A2992 RMK A01 T01460103  RH  075%=      5-min Rain = 0
KSC1 162015Z 36012G17KT 15/10 A2992 RMK A01 T01460103  RH  076%=      5-min Rain = 0
KSC1 162016Z 00013G18KT 14/10 A2992 RMK A01 T01440100  RH  075%=      5-min Rain = 0
KSC1 162017Z 36013KT 14/10 A2992 RMK A01 T01430099  RH  075%=      5-min Rain = 0
KSC1 162018Z 00015KT 14/10 A2992 RMK A01 T01430098  RH  074%=      5-min Rain = 0
KSC1 162019Z 36014KT 14/10 A2992 RMK A01 T01430098  RH  074%=      5-min Rain = 0
KSC1 162020Z 35015KT 14/10 A2992 RMK A01 T01430098  RH  074%=      5-min Rain = 0
KSC1 162021Z 36015KT 14/10 A2993 RMK A01 T01430097  RH  074%=      5-min Rain = 0
KSC1 162022Z 36014KT 14/10 A2993 RMK A01 T01430097  RH  074%=      5-min Rain = 0
KSC1 162023Z 36014KT 14/10 A2993 RMK A01 T01430098  RH  074%=      5-min Rain = 0
KSC1 162024Z 01013G19KT 14/10 A2993 RMK A01 T01440097  RH  073%=      5-min Rain = 0
KSC1 162025Z 01013KT 14/10 A2993 RMK A01 T01430097  RH  074%=      5-min Rain = 0
KSC1 162026Z 00014KT 14/10 A2993 RMK A01 T01440098  RH  074%=      5-min Rain = 0
KSC1 162027Z 36011G17KT 14/10 A2993 RMK A01 T01440099  RH  074%=      5-min Rain = 0
KSC1 162028Z 36013G18KT 15/10 A2993 RMK A01 T01450099  RH  074%=      5-min Rain = 0
KSC1 162029Z 01012G17KT 15/10 A2993 RMK A01 T01450099  RH  074%=      5-min Rain = 0
KSC1 162030Z 00014KT 14/10 A2993 RMK A01 T01440098  RH  074%=      5-min Rain = 0
KSC1 162031Z 01010KT 14/10 A2993 RMK A01 T01430097  RH  074%=      5-min Rain = 0
KSC1 162032Z 01009KT 14/10 A2993 RMK A01 T01430100  RH  076%=      5-min Rain = 0
KSC1 162033Z 00012G18KT 14/10 A2993 RMK A01 T01440101  RH  075%=      5-min Rain = 0
KSC1 162034Z 00010KT 14/10 A2993 RMK A01 T01440100  RH  075%=      5-min Rain = 0
KSC1 162035Z 01011KT 14/10 A2993 RMK A01 T01430099  RH  075%=      5-min Rain = 0
KSC1 162036Z 01015KT 14/10 A2993 RMK A01 T01420099  RH  075%=      5-min Rain = 0
KSC1 162037Z 01011KT 14/10 A2993 RMK A01 T01410097  RH  075%=      5-min Rain = 0
KSC1 162038Z 01013KT 14/10 A2993 RMK A01 T01400097  RH  075%=      5-min Rain = 0
KSC1 162039Z 00014G19KT 14/10 A2993 RMK A01 T01400097  RH  075%=      5-min Rain = 0
KSC1 162040Z 35012KT 14/10 A2993 RMK A01 T01390096  RH  075%=      5-min Rain = 0
KSC1 162041Z 01009G14KT 14/10 A2993 RMK A01 T01380097  RH  076%=      5-min Rain = 0
KSC1 162042Z 02011KT 14/10 A2993 RMK A01 T01380097  RH  076%=      5-min Rain = 0
KSC1 162043Z 00012KT 14/10 A2993 RMK A01 T01380098  RH  076%=      5-min Rain = 0
KSC1 162044Z 36011KT 14/10 A2993 RMK A01 T01380098  RH  077%=      5-min Rain = 0
KSC1 162045Z 36010KT 14/10 A2993 RMK A01 T01380099  RH  077%=      5-min Rain = 0
KSC1 162046Z 35013KT 14/10 A2994 RMK A01 T01400098  RH  076%=      5-min Rain = 0
KSC1 162047Z 35013KT 14/10 A2994 RMK A01 T01390096  RH  075%=      5-min Rain = 0
KSC1 162048Z 36014KT 14/10 A2994 RMK A01 T01380095  RH  075%=      5-min Rain = 0
KSC1 162049Z 35013KT 14/09 A2994 RMK A01 T01380094  RH  075%=      5-min Rain = 0
KSC1 162050Z 35013KT 14/10 A2994 RMK A01 T01380095  RH  075%=      5-min Rain = 0
KSC1 162051Z 34015KT 14/10 A2994 RMK A01 T01380095  RH  075%=      5-min Rain = 0
KSC1 162052Z 36011G16KT 14/10 A2994 RMK A01 T01370095  RH  075%=      5-min Rain = 0
KSC1 162053Z 00014KT 14/10 A2994 RMK A01 T01370095  RH  076%=      5-min Rain = 0
KSC1 162054Z 01013KT 14/10 A2994 RMK A01 T01370095  RH  076%=      5-min Rain = 0
KSC1 162055Z 00014KT 14/10 A2994 RMK A01 T01360095  RH  076%=      5-min Rain = 0
KSC1 162056Z 01014KT 14/10 A2994 RMK A01 T01350095  RH  076%=      5-min Rain = 0
KSC1 162057Z 01014G19KT 14/10 A2994 RMK A01 T01350095  RH  076%=      5-min Rain = 0
KSC1 162058Z 01016G21KT 14/09 A2994 RMK A01 T01350093  RH  076%=      5-min Rain = 0
KSC1 162059Z 36013KT 14/09 A2993 RMK A01 T01350092  RH  075%=      5-min Rain = 0
KSC1 162100Z 01011KT 14/09 A2993 RMK A01 T01350093  RH  076%=      5-min Rain = 0
KSC1 162101Z 01013KT 14/09 A2994 RMK A01 T01350094  RH  076%=      5-min Rain = 0
KSC1 162102Z 01013KT 14/09 A2994 RMK A01 T01350093  RH  075%=      5-min Rain = 0
KSC1 162103Z 01012KT 14/09 A2994 RMK A01 T01350093  RH  075%=      5-min Rain = 0
KSC1 162104Z 01012G17KT 14/09 A2994 RMK A01 T01350093  RH  075%=      5-min Rain = 0
KSC1 162105Z 01012G18KT 14/09 A2994 RMK A01 T01350091  RH  075%=      5-min Rain = 0
KSC1 162106Z 01013KT 14/09 A2994 RMK A01 T01360092  RH  075%=      5-min Rain = 0
KSC1 162107Z 01012KT 14/09 A2994 RMK A01 T01350091  RH  075%=      5-min Rain = 0
KSC1 162108Z 00012G17KT 14/09 A2994 RMK A01 T01350091  RH  075%=      5-min Rain = 0
KSC1 162109Z 01015KT 14/09 A2994 RMK A01 T01350091  RH  075%=      5-min Rain = 0
KSC1 162110Z 36011G16KT 14/09 A2994 RMK A01 T01350091  RH  075%=      5-min Rain = 0
KSC1 162111Z 36012KT 13/09 A2994 RMK A01 T01340091  RH  075%=      5-min Rain = 0
KSC1 162112Z 01011KT 14/09 A2994 RMK A01 T01350091  RH  075%=      5-min Rain = 0
KSC1 162113Z 01012KT 14/09 A2995 RMK A01 T01350091  RH  075%=      5-min Rain = 0
KSC1 162114Z 02014KT 14/09 A2995 RMK A01 T01350091  RH  074%=      5-min Rain = 0
KSC1 162115Z 01012G17KT 14/09 A2995 RMK A01 T01350090  RH  074%=      5-min Rain = 0
KSC1 162116Z 36010G16KT 14/09 A2995 RMK A01 T01350090  RH  074%=      5-min Rain = 0
KSC1 162117Z 00011KT 14/09 A2994 RMK A01 T01350090  RH  074%=      5-min Rain = 0
KSC1 162118Z 01012KT 14/09 A2994 RMK A01 T01350090  RH  074%=      5-min Rain = 0
KSC1 162119Z 00013KT 14/09 A2994 RMK A01 T01350090  RH  074%=      5-min Rain = 0
KSC1 162120Z 36013KT 13/09 A2994 RMK A01 T01340089  RH  074%=      5-min Rain = 0
KSC1 162121Z 01011KT 13/09 A2994 RMK A01 T01340090  RH  074%=      5-min Rain = 0
KSC1 162122Z 00009G14KT 13/09 A2994 RMK A01 T01340090  RH  075%=      5-min Rain = 0
KSC1 162123Z 01012KT 13/09 A2994 RMK A01 T01340091  RH  075%=      5-min Rain = 0
KSC1 162124Z 02013KT 13/09 A2993 RMK A01 T01340090  RH  075%=      5-min Rain = 0
KSC1 162125Z 01013KT 13/09 A2993 RMK A01 T01340091  RH  075%=      5-min Rain = 0
KSC1 162126Z 01013KT 13/09 A2993 RMK A01 T01330090  RH  075%=      5-min Rain = 0
KSC1 162127Z 36012KT 13/09 A2994 RMK A01 T01330091  RH  075%=      5-min Rain = 0
KSC1 162128Z 01013KT 13/09 A2994 RMK A01 T01330090  RH  075%=      5-min Rain = 0
KSC1 162129Z 03011KT 13/09 A2993 RMK A01 T01330089  RH  075%=      5-min Rain = 0
KSC1 162130Z 03008KT 13/09 A2993 RMK A01 T01320090  RH  076%=      5-min Rain = 0
KSC1 162131Z 01010KT 13/09 A2994 RMK A01 T01330090  RH  075%=      5-min Rain = 0
KSC1 162132Z 00010G15KT 13/09 A2994 RMK A01 T01330090  RH  075%=      5-min Rain = 0
KSC1 162133Z 01011KT 13/09 A2994 RMK A01 T01340089  RH  075%=      5-min Rain = 0
KSC1 162134Z 01011KT 13/09 A2994 RMK A01 T01330088  RH  074%=      5-min Rain = 0
KSC1 162135Z 01011KT 13/09 A2995 RMK A01 T01320088  RH  074%=      5-min Rain = 0
KSC1 162136Z 36013KT 13/09 A2995 RMK A01 T01320088  RH  075%=      5-min Rain = 0
KSC1 162137Z 00013KT 13/09 A2995 RMK A01 T01310088  RH  075%=      5-min Rain = 0
KSC1 162138Z 01013KT 13/09 A2995 RMK A01 T01310086  RH  074%=      5-min Rain = 0
KSC1 162139Z 02011KT 13/09 A2995 RMK A01 T01300085  RH  074%=      5-min Rain = 0
KSC1 162140Z 02012KT 13/09 A2994 RMK A01 T01290086  RH  075%=      5-min Rain = 0
KSC1 162141Z 01011KT 13/09 A2994 RMK A01 T01300087  RH  075%=      5-min Rain = 0
KSC1 162142Z 01009KT 13/09 A2995 RMK A01 T01300088  RH  076%=      5-min Rain = 0
KSC1 162143Z 01009KT 13/09 A2995 RMK A01 T01300088  RH  076%=      5-min Rain = 0
KSC1 162144Z 36011G16KT 13/09 A2995 RMK A01 T01300089  RH  076%=      5-min Rain = 0
KSC1 162145Z 00011KT 13/09 A2995 RMK A01 T01310089  RH  076%=      5-min Rain = 0
KSC1 162146Z 36012KT 13/09 A2995 RMK A01 T01300089  RH  076%=      5-min Rain = 0
KSC1 162147Z 01011KT 13/09 A2995 RMK A01 T01290089  RH  077%=      5-min Rain = 0
KSC1 162148Z 01015KT 13/09 A2995 RMK A01 T01290089  RH  076%=      5-min Rain = 0
KSC1 162149Z 01015KT 13/09 A2994 RMK A01 T01290087  RH  076%=      5-min Rain = 0
KSC1 162150Z 02012G18KT 13/09 A2994 RMK A01 T01270086  RH  076%=      5-min Rain = 0
KSC1 162151Z 03013KT 13/09 A2994 RMK A01 T01270086  RH  076%=      5-min Rain = 0
KSC1 162152Z 02015KT 13/09 A2994 RMK A01 T01260086  RH  076%=      5-min Rain = 0
KSC1 162153Z 02014KT 13/09 A2995 RMK A01 T01250085  RH  076%=      5-min Rain = 0
KSC1 162154Z 01010KT 13/09 A2995 RMK A01 T01250086  RH  077%=      5-min Rain = 0
KSC1 162155Z 02011KT 13/09 A2994 RMK A01 T01250087  RH  078%=      5-min Rain = 0
KSC1 162156Z 02012G17KT 13/09 A2994 RMK A01 T01250087  RH  078%=      5-min Rain = 0
KSC1 162157Z 03014KT 12/09 A2994 RMK A01 T01240087  RH  078%=      5-min Rain = 0
KSC1 162158Z 02014KT 12/09 A2994 RMK A01 T01230086  RH  078%=      5-min Rain = 0
KSC1 162159Z 01012KT 12/09 A2994 RMK A01 T01230087  RH  079%=      5-min Rain = 0
KSC1 162200Z 02011KT 12/09 A2995 RMK A01 T01220087  RH  079%=      5-min Rain = 0
KSC1 162201Z 02012G17KT 12/09 A2995 RMK A01 T01220087  RH  079%=      5-min Rain = 0
KSC1 162202Z 02013KT 12/09 A2994 RMK A01 T01220086  RH  078%=      5-min Rain = 0
KSC1 162203Z 03012KT 12/09 A2994 RMK A01 T01210085  RH  078%=      5-min Rain = 0
KSC1 162204Z 02010G15KT 12/09 A2993 RMK A01 T01210086  RH  079%=      5-min Rain = 0
KSC1 162205Z 01009KT 12/09 A2994 RMK A01 T01210086  RH  079%=      5-min Rain = 0
KSC1 162206Z 36007KT 12/09 A2995 RMK A01 T01210086  RH  079%=      5-min Rain = 0
KSC1 162207Z 01009KT 12/09 A2995 RMK A01 T01220087  RH  079%=      5-min Rain = 0
KSC1 162208Z 02010KT 12/09 A2995 RMK A01 T01230087  RH  078%=      5-min Rain = 0
KSC1 162209Z 01012KT 12/09 A2994 RMK A01 T01240086  RH  078%=      5-min Rain = 0
KSC1 162210Z 02009KT 12/09 A2994 RMK A01 T01240086  RH  078%=      5-min Rain = 0
KSC1 162211Z 02009KT 12/09 A2994 RMK A01 T01240087  RH  079%=      5-min Rain = 0
KSC1 162212Z 01013KT 12/09 A2994 RMK A01 T01240087  RH  078%=      5-min Rain = 0
KSC1 162213Z 01012KT 12/09 A2994 RMK A01 T01240086  RH  078%=      5-min Rain = 0
KSC1 162214Z 02014KT 12/08 A2994 RMK A01 T01230084  RH  077%=      5-min Rain = 0
KSC1 162215Z 01014G19KT 12/08 A2994 RMK A01 T01210082  RH  077%=      5-min Rain = 0
KSC1 162216Z 02014KT 12/08 A2994 RMK A01 T01210081  RH  077%=      5-min Rain = 0
KSC1 162217Z 02012KT 12/08 A2993 RMK A01 T01200081  RH  077%=      5-min Rain = 0
KSC1 162218Z 01012KT 12/08 A2993 RMK A01 T01200082  RH  078%=      5-min Rain = 0
KSC1 162219Z 01011KT 12/08 A2993 RMK A01 T01200083  RH  078%=      5-min Rain = 0
KSC1 162220Z 01013KT 12/08 A2993 RMK A01 T01210084  RH  078%=      5-min Rain = 0
KSC1 162221Z 03012KT 12/08 A2993 RMK A01 T01220083  RH  077%=      5-min Rain = 0
KSC1 162222Z 03013G18KT 12/08 A2993 RMK A01 T01220084  RH  077%=      5-min Rain = 0
KSC1 162223Z 01012KT 12/08 A2993 RMK A01 T01210083  RH  077%=      5-min Rain = 0
KSC1 162224Z 36011KT 12/08 A2994 RMK A01 T01210083  RH  078%=      5-min Rain = 0
KSC1 162225Z 01013G18KT 12/08 A2995 RMK A01 T01210083  RH  078%=      5-min Rain = 0
KSC1 162226Z 01010KT 12/08 A2994 RMK A01 T01200083  RH  078%=      5-min Rain = 0
KSC1 162227Z 02009KT 12/08 A2994 RMK A01 T01210084  RH  078%=      5-min Rain = 0
KSC1 162228Z 01013G18KT 12/08 A2994 RMK A01 T01210083  RH  078%=      5-min Rain = 0
KSC1 162229Z 02014G20KT 12/08 A2994 RMK A01 T01200082  RH  077%=      5-min Rain = 0
KSC1 162230Z 01014KT 12/08 A2994 RMK A01 T01190081  RH  077%=      5-min Rain = 0
KSC1 162231Z 01014KT 12/08 A2994 RMK A01 T01190081  RH  078%=      5-min Rain = 0
KSC1 162232Z 02015KT 12/08 A2994 RMK A01 T01180082  RH  078%=      5-min Rain = 0
KSC1 162233Z 02013KT 12/08 A2994 RMK A01 T01180081  RH  078%=      5-min Rain = 0
KSC1 162234Z 01011KT 12/08 A2994 RMK A01 T01170082  RH  079%=      5-min Rain = 0
KSC1 162235Z 01011KT 12/08 A2995 RMK A01 T01170081  RH  079%=      5-min Rain = 0
KSC1 162236Z 02013KT 12/08 A2995 RMK A01 T01170081  RH  079%=      5-min Rain = 0
KSC1 162237Z 02013KT 12/08 A2994 RMK A01 T01170080  RH  078%=      5-min Rain = 0
KSC1 162238Z 02013KT 12/08 A2994 RMK A01 T01170081  RH  078%=      5-min Rain = 0
KSC1 162239Z 01011KT 12/08 A2994 RMK A01 T01160081  RH  079%=      5-min Rain = 0
KSC1 162240Z 00015G20KT 12/08 A2994 RMK A01 T01160081  RH  079%=      5-min Rain = 0
KSC1 162241Z 01014KT 12/08 A2994 RMK A01 T01160080  RH  079%=      5-min Rain = 0
KSC1 162242Z 01014KT 12/08 A2994 RMK A01 T01160081  RH  079%=      5-min Rain = 0
KSC1 162243Z 01014KT 12/08 A2994 RMK A01 T01160081  RH  079%=      5-min Rain = 0
KSC1 162244Z 01010KT 12/08 A2994 RMK A01 T01150081  RH  079%=      5-min Rain = 0
KSC1 162245Z 02012G20KT 12/08 A2994 RMK A01 T01160081  RH  079%=      5-min Rain = 0
KSC1 162246Z 02014G20KT 12/08 A2994 RMK A01 T01160080  RH  079%=      5-min Rain = 0
KSC1 162247Z 02009KT 12/08 A2994 RMK A01 T01160082  RH  079%=      5-min Rain = 0
KSC1 162248Z 02013KT 12/08 A2994 RMK A01 T01160081  RH  079%=      5-min Rain = 0
KSC1 162249Z 01012KT 12/08 A2994 RMK A01 T01160081  RH  079%=      5-min Rain = 0
KSC1 162250Z 01014KT 12/08 A2995 RMK A01 T01160081  RH  079%=      5-min Rain = 0
KSC1 162251Z 01012G18KT 12/08 A2995 RMK A01 T01160081  RH  079%=      5-min Rain = 0
KSC1 162252Z 02012KT 12/08 A2995 RMK A01 T01160081  RH  079%=      5-min Rain = 0
KSC1 162253Z 02009KT 12/08 A2995 RMK A01 T01160081  RH  079%=      5-min Rain = 0
KSC1 162254Z 01011KT 12/08 A2995 RMK A01 T01160081  RH  079%=      5-min Rain = 0
KSC1 162255Z 01014KT 12/08 A2995 RMK A01 T01160080  RH  079%=      5-min Rain = 0
KSC1 162256Z 02013G19KT 12/08 A2995 RMK A01 T01170079  RH  078%=      5-min Rain = 0
KSC1 162257Z 01012KT 12/08 A2995 RMK A01 T01160079  RH  078%=      5-min Rain = 0
KSC1 162258Z 02013KT 12/08 A2995 RMK A01 T01160078  RH  078%=      5-min Rain = 0
KSC1 162259Z 01010KT 12/08 A2995 RMK A01 T01160079  RH  078%=      5-min Rain = 0
KSC1 162300Z 02009KT 12/08 A2995 RMK A01 T01160079  RH  078%=      5-min Rain = 0
KSC1 162301Z 01017KT 12/08 A2995 RMK A01 T01170078  RH  077%=      5-min Rain = 0
KSC1 162302Z 01014KT 12/08 A2995 RMK A01 T01160076  RH  076%=      5-min Rain = 0
KSC1 162303Z 01013KT 12/08 A2995 RMK A01 T01160076  RH  077%=      5-min Rain = 0
KSC1 162304Z 02012KT 12/08 A2996 RMK A01 T01160076  RH  077%=      5-min Rain = 0
KSC1 162305Z 01013KT 12/08 A2996 RMK A01 T01160077  RH  077%=      5-min Rain = 0
KSC1 162306Z 01012KT 12/08 A2996 RMK A01 T01160077  RH  077%=      5-min Rain = 0
KSC1 162307Z 02010KT 12/08 A2996 RMK A01 T01160077  RH  077%=      5-min Rain = 0
KSC1 162308Z 01011KT 12/08 A2996 RMK A01 T01160078  RH  077%=      5-min Rain = 0
KSC1 162309Z 01010KT 12/08 A2996 RMK A01 T01160077  RH  077%=      5-min Rain = 0
KSC1 162310Z 01011KT 12/08 A2996 RMK A01 T01160078  RH  078%=      5-min Rain = 0
KSC1 162311Z 00014KT 12/08 A2996 RMK A01 T01160078  RH  077%=      5-min Rain = 0
KSC1 162312Z 02012G20KT 12/08 A2996 RMK A01 T01160078  RH  078%=      5-min Rain = 0
KSC1 162313Z 02014G20KT 12/08 A2996 RMK A01 T01160077  RH  077%=      5-min Rain = 0
KSC1 162314Z 03014KT 12/08 A2996 RMK A01 T01150077  RH  078%=      5-min Rain = 0
KSC1 162315Z 03012G17KT 11/08 A2996 RMK A01 T01140077  RH  078%=      5-min Rain = 0
KSC1 162316Z 02014KT 11/08 A2996 RMK A01 T01140077  RH  078%=      5-min Rain = 0
KSC1 162317Z 02014KT 11/08 A2996 RMK A01 T01140076  RH  078%=      5-min Rain = 0
KSC1 162318Z 02014KT 11/08 A2996 RMK A01 T01140076  RH  078%=      5-min Rain = 0
KSC1 162319Z 02012KT 11/08 A2996 RMK A01 T01140076  RH  078%=      5-min Rain = 0
KSC1 162320Z 02009KT 11/08 A2996 RMK A01 T01140076  RH  078%=      5-min Rain = 0
KSC1 162321Z 02010KT 12/08 A2996 RMK A01 T01150077  RH  078%=      5-min Rain = 0
KSC1 162322Z 02011KT 11/08 A2996 RMK A01 T01140077  RH  078%=      5-min Rain = 0
KSC1 162323Z 01012KT 12/08 A2996 RMK A01 T01150077  RH  077%=      5-min Rain = 0
KSC1 162324Z 00010G15KT 12/08 A2996 RMK A01 T01150075  RH  077%=      5-min Rain = 0
KSC1 162325Z 01016G21KT 12/08 A2996 RMK A01 T01150075  RH  076%=      5-min Rain = 0
KSC1 162326Z 00014KT 12/07 A2996 RMK A01 T01150074  RH  076%=      5-min Rain = 0
KSC1 162327Z 01015KT 12/07 A2996 RMK A01 T01150074  RH  076%=      5-min Rain = 0
KSC1 162328Z 01014KT 12/07 A2996 RMK A01 T01150074  RH  076%=      5-min Rain = 0
KSC1 162329Z 01013KT 12/07 A2996 RMK A01 T01150074  RH  076%=      5-min Rain = 0
KSC1 162330Z 36013KT 12/07 A2996 RMK A01 T01150074  RH  076%=      5-min Rain = 0
KSC1 162331Z 36014KT 12/07 A2996 RMK A01 T01150074  RH  076%=      5-min Rain = 0
KSC1 162332Z 01011KT 12/07 A2996 RMK A01 T01150074  RH  076%=      5-min Rain = 0
KSC1 162333Z 03013KT 12/07 A2996 RMK A01 T01150074  RH  076%=      5-min Rain = 0
KSC1 162334Z 02010KT 12/07 A2996 RMK A01 T01160074  RH  076%=      5-min Rain = 0
KSC1 162335Z 01010KT 12/08 A2995 RMK A01 T01160075  RH  076%=      5-min Rain = 0
KSC1 162336Z 01012G17KT 12/07 A2995 RMK A01 T01170074  RH  075%=      5-min Rain = 0
KSC1 162337Z 01014KT 12/07 A2995 RMK A01 T01170073  RH  075%=      5-min Rain = 0
KSC1 162338Z 01013KT 12/07 A2995 RMK A01 T01170073  RH  074%=      5-min Rain = 0
KSC1 162339Z 02012G17KT 12/07 A2995 RMK A01 T01170073  RH  074%=      5-min Rain = 0
KSC1 162340Z 02011KT 12/07 A2995 RMK A01 T01170072  RH  074%=      5-min Rain = 0
KSC1 162341Z 02010KT 12/07 A2995 RMK A01 T01170073  RH  075%=      5-min Rain = 0
KSC1 162342Z 02011KT 12/07 A2995 RMK A01 T01170074  RH  075%=      5-min Rain = 0
KSC1 162343Z 02013G18KT 12/08 A2996 RMK A01 T01180075  RH  075%=      5-min Rain = 0
KSC1 162344Z 02014KT 12/07 A2996 RMK A01 T01170074  RH  075%=      5-min Rain = 0
KSC1 162345Z 02012KT 12/07 A2996 RMK A01 T01160074  RH  075%=      5-min Rain = 0
KSC1 162346Z 02010KT 12/08 A2996 RMK A01 T01160075  RH  076%=      5-min Rain = 0
KSC1 162347Z 02014KT 12/07 A2996 RMK A01 T01160074  RH  076%=      5-min Rain = 0
KSC1 162348Z 01013KT 12/07 A2996 RMK A01 T01160073  RH  075%=      5-min Rain = 0
KSC1 162349Z 02012KT 12/07 A2996 RMK A01 T01160073  RH  075%=      5-min Rain = 0
KSC1 162350Z 02014KT 12/07 A2997 RMK A01 T01150073  RH  075%=      5-min Rain = 0
KSC1 162351Z 01012KT 12/07 A2997 RMK A01 T01150073  RH  075%=      5-min Rain = 0
KSC1 162352Z 01013G19KT 12/07 A2997 RMK A01 T01150073  RH  075%=      5-min Rain = 0
KSC1 162353Z 02014KT 12/07 A2997 RMK A01 T01150073  RH  075%=      5-min Rain = 0
KSC1 162354Z 01014KT 12/07 A2997 RMK A01 T01150073  RH  075%=      5-min Rain = 0
KSC1 162355Z 02012KT 12/07 A2997 RMK A01 T01150073  RH  075%=      5-min Rain = 0
KSC1 162356Z 01008KT 12/07 A2997 RMK A01 T01150073  RH  076%=      5-min Rain = 0
KSC1 162357Z 01011KT 12/07 A2997 RMK A01 T01150074  RH  076%=      5-min Rain = 0
KSC1 162358Z 36012KT 12/07 A2998 RMK A01 T01150074  RH  076%=      5-min Rain = 0
KSC1 162359Z 36013G18KT 12/07 A2998 RMK A01 T01150073  RH  075%=      5-min Rain = 0
KSC1 170000Z 36013KT 12/07 A2998 RMK A01 T01150073  RH  075%=      5-min Rain = 0
KSC1 170001Z 01011KT 11/07 A2998 RMK A01 T01140073  RH  076%=      5-min Rain = 0
KSC1 170002Z 02009KT 11/07 A2998 RMK A01 T01140074  RH  076%=      5-min Rain = 0
KSC1 170003Z 02010KT 11/07 A2998 RMK A01 T01140074  RH  076%=      5-min Rain = 0
KSC1 170004Z 03012KT 11/07 A2998 RMK A01 T01140074  RH  076%=      5-min Rain = 0
KSC1 170005Z 03010KT 11/07 A2998 RMK A01 T01140073  RH  076%=      5-min Rain = 0
KSC1 170006Z 02013KT 11/07 A2998 RMK A01 T01140073  RH  076%=      5-min Rain = 0
KSC1 170007Z 02011KT 12/07 A2998 RMK A01 T01150074  RH  076%=      5-min Rain = 0
KSC1 170008Z 01013KT 11/07 A2998 RMK A01 T01140073  RH  076%=      5-min Rain = 0
KSC1 170009Z 02013KT 11/07 A2998 RMK A01 T01140072  RH  075%=      5-min Rain = 0
KSC1 170010Z 02010KT 11/07 A2998 RMK A01 T01140073  RH  076%=      5-min Rain = 0
KSC1 170011Z 01010KT 12/07 A2998 RMK A01 T01150074  RH  076%=      5-min Rain = 0
KSC1 170012Z 01013KT 12/07 A2998 RMK A01 T01150073  RH  075%=      5-min Rain = 0
KSC1 170013Z 01013KT 12/07 A2998 RMK A01 T01150073  RH  075%=      5-min Rain = 0
KSC1 170014Z 01013KT 12/07 A2998 RMK A01 T01150073  RH  075%=      5-min Rain = 0
KSC1 170015Z 01013KT 12/07 A2998 RMK A01 T01150074  RH  076%=      5-min Rain = 0
KSC1 170016Z 02010KT 12/07 A2998 RMK A01 T01150074  RH  076%=      5-min Rain = 0
KSC1 170017Z 01011KT 12/07 A2998 RMK A01 T01150074  RH  076%=      5-min Rain = 0
KSC1 170018Z 01010KT 12/07 A2998 RMK A01 T01150073  RH  075%=      5-min Rain = 0
KSC1 170019Z 01008KT 12/07 A2999 RMK A01 T01150072  RH  075%=      5-min Rain = 0
KSC1 170020Z 01008KT 12/07 A2999 RMK A01 T01150072  RH  075%=      5-min Rain = 0
KSC1 170021Z 01010KT 12/07 A2999 RMK A01 T01150072  RH  075%=      5-min Rain = 0
KSC1 170022Z 02010KT 12/07 A2999 RMK A01 T01160072  RH  075%=      5-min Rain = 0
KSC1 170023Z 03011G16KT 12/07 A2999 RMK A01 T01160072  RH  074%=      5-min Rain = 0
KSC1 170024Z 03014KT 12/07 A2999 RMK A01 T01160071  RH  074%=      5-min Rain = 0
KSC1 170025Z 02012KT 12/07 A2999 RMK A01 T01160071  RH  074%=      5-min Rain = 0
KSC1 170026Z 02011KT 12/07 A2999 RMK A01 T01160071  RH  074%=      5-min Rain = 0
KSC1 170027Z 02012KT 12/07 A30 RMK A01 T01160071  RH  074%=      5-min Rain = 0
KSC1 170028Z 03012KT 12/07 A30 RMK A01 T01160071  RH  074%=      5-min Rain = 0
KSC1 170029Z 02011KT 12/07 A30 RMK A01 T01160071  RH  074%=      5-min Rain = 0
KSC1 170030Z 01009G14KT 12/07 A30 RMK A01 T01160071  RH  074%=      5-min Rain = 0
KSC1 170031Z 02011KT 12/07 A2999 RMK A01 T01160072  RH  074%=      5-min Rain = 0
KSC1 170032Z 02012KT 12/07 A2999 RMK A01 T01160071  RH  074%=      5-min Rain = 0
KSC1 170033Z 02013KT 12/07 A2999 RMK A01 T01150070  RH  074%=      5-min Rain = 0
KSC1 170034Z 02012KT 12/07 A2999 RMK A01 T01150070  RH  074%=      5-min Rain = 0
KSC1 170035Z 02012KT 12/07 A2999 RMK A01 T01150070  RH  074%=      5-min Rain = 0
KSC1 170036Z 03011KT 12/07 A2999 RMK A01 T01150071  RH  074%=      5-min Rain = 0
KSC1 170037Z 03010G16KT 12/07 A2999 RMK A01 T01150071  RH  074%=      5-min Rain = 0
KSC1 170038Z 03012KT 12/07 A2999 RMK A01 T01150071  RH  074%=      5-min Rain = 0
KSC1 170039Z 02013KT 12/07 A2999 RMK A01 T01150071  RH  074%=      5-min Rain = 0
KSC1 170040Z 03011KT 11/07 A2999 RMK A01 T01140070  RH  074%=      5-min Rain = 0
KSC1 170041Z 02012KT 11/07 A2999 RMK A01 T01140071  RH  075%=      5-min Rain = 0
KSC1 170042Z 02010G15KT 11/07 A2999 RMK A01 T01140070  RH  075%=      5-min Rain = 0
KSC1 170043Z 02013KT 11/07 A2999 RMK A01 T01140071  RH  075%=      5-min Rain = 0
KSC1 170044Z 03011KT 11/07 A30 RMK A01 T01140071  RH  075%=      5-min Rain = 0
KSC1 170045Z 02010KT 11/07 A2999 RMK A01 T01140071  RH  075%=      5-min Rain = 0
KSC1 170046Z 03007KT 11/07 A30 RMK A01 T01140072  RH  075%=      5-min Rain = 0
KSC1 170047Z 03009KT 11/07 A30 RMK A01 T01140072  RH  076%=      5-min Rain = 0
KSC1 170048Z 04011KT 11/07 A30 RMK A01 T01140073  RH  076%=      5-min Rain = 0
KSC1 170049Z 03009KT 11/07 A30 RMK A01 T01140073  RH  076%=      5-min Rain = 0
KSC1 170050Z 02009KT 11/07 A30 RMK A01 T01140073  RH  076%=      5-min Rain = 0
KSC1 170051Z 02010KT 11/07 A30 RMK A01 T01130072  RH  076%=      5-min Rain = 0
KSC1 170052Z 02009KT 11/07 A30 RMK A01 T01130072  RH  076%=      5-min Rain = 0
KSC1 170053Z 01009KT 11/07 A30 RMK A01 T01130072  RH  076%=      5-min Rain = 0
KSC1 170054Z 02011G16KT 11/07 A2999 RMK A01 T01130071  RH  075%=      5-min Rain = 0
KSC1 170055Z 02008KT 11/07 A2999 RMK A01 T01130070  RH  075%=      5-min Rain = 0
KSC1 170056Z 03011KT 11/07 A2999 RMK A01 T01130071  RH  075%=      5-min Rain = 0
KSC1 170057Z 02010KT 11/07 A30 RMK A01 T01120070  RH  075%=      5-min Rain = 0
KSC1 170058Z 02011KT 11/07 A30 RMK A01 T01130069  RH  075%=      5-min Rain = 0
KSC1 170059Z 02009KT 11/07 A30 RMK A01 T01120069  RH  075%=      5-min Rain = 0
KSC1 170100Z 02011G16KT 11/07 A30 RMK A01 T01120068  RH  074%=      5-min Rain = 0
KSC1 170101Z 02011G16KT 11/07 A30 RMK A01 T01120068  RH  074%=      5-min Rain = 0
KSC1 170102Z 02012KT 11/07 A30 RMK A01 T01120067  RH  074%=      5-min Rain = 0
KSC1 170103Z 02010KT 11/07 A30 RMK A01 T01120067  RH  074%=      5-min Rain = 0
KSC1 170104Z 01011G16KT 11/07 A2999 RMK A01 T01120067  RH  074%=      5-min Rain = 0
KSC1 170105Z 02014KT 11/07 A2999 RMK A01 T01120067  RH  074%=      5-min Rain = 0
KSC1 170106Z 02007KT 11/07 A2999 RMK A01 T01120068  RH  074%=      5-min Rain = 0
KSC1 170107Z 03010KT 11/07 A2999 RMK A01 T01120068  RH  074%=      5-min Rain = 0
KSC1 170108Z 02009KT 11/07 A2999 RMK A01 T01120067  RH  074%=      5-min Rain = 0
KSC1 170109Z 02009G16KT 11/07 A2999 RMK A01 T01110067  RH  074%=      5-min Rain = 0
KSC1 170110Z 03014KT 11/07 A2999 RMK A01 T01100066  RH  074%=      5-min Rain = 0
KSC1 170111Z 02013G18KT 11/07 A2999 RMK A01 T01100065  RH  074%=      5-min Rain = 0
KSC1 170112Z 03013KT 11/06 A30 RMK A01 T01100064  RH  073%=      5-min Rain = 0
KSC1 170113Z 02009G15KT 11/06 A30 RMK A01 T01100064  RH  073%=      5-min Rain = 0
KSC1 170114Z 04009KT 11/06 A30 RMK A01 T01100064  RH  073%=      5-min Rain = 0
KSC1 170115Z 04010KT 11/07 A30 RMK A01 T01100065  RH  074%=      5-min Rain = 0
KSC1 170116Z 04011KT 11/07 A30 RMK A01 T01100065  RH  074%=      5-min Rain = 0
KSC1 170117Z 04007KT 11/07 A3001 RMK A01 T01100065  RH  074%=      5-min Rain = 0
KSC1 170118Z 04004KT 11/07 A3001 RMK A01 T01100065  RH  074%=      5-min Rain = 0
KSC1 170119Z 02005KT 11/07 A3001 RMK A01 T01100065  RH  074%=      5-min Rain = 0
KSC1 170120Z 03007KT 11/07 A3001 RMK A01 T01090065  RH  074%=      5-min Rain = 0
KSC1 170121Z 03008KT 11/07 A3001 RMK A01 T01090065  RH  074%=      5-min Rain = 0
KSC1 170122Z 03008KT 11/06 A3001 RMK A01 T01090064  RH  074%=      5-min Rain = 0
KSC1 170123Z 04009KT 11/06 A3001 RMK A01 T01090064  RH  074%=      5-min Rain = 0
KSC1 170124Z 04007KT 11/06 A3001 RMK A01 T01090063  RH  074%=      5-min Rain = 0
KSC1 170125Z 03007KT 11/06 A3001 RMK A01 T01080063  RH  074%=      5-min Rain = 0
KSC1 170126Z 03007KT 11/06 A3001 RMK A01 T01080063  RH  074%=      5-min Rain = 0
KSC1 170127Z 03007KT 11/06 A3001 RMK A01 T01070063  RH  074%=      5-min Rain = 0
KSC1 170128Z 03008KT 11/06 A3001 RMK A01 T01070063  RH  074%=      5-min Rain = 0
KSC1 170129Z 03006KT 11/06 A3001 RMK A01 T01060062  RH  074%=      5-min Rain = 0
KSC1 170130Z 04007KT 11/06 A3001 RMK A01 T01060062  RH  075%=      5-min Rain = 0
KSC1 170131Z 03005KT 11/06 A3001 RMK A01 T01050062  RH  075%=      5-min Rain = 0
KSC1 170132Z 03008KT 11/06 A3001 RMK A01 T01050062  RH  075%=      5-min Rain = 0
KSC1 170133Z 04009KT 11/06 A3001 RMK A01 T01050062  RH  075%=      5-min Rain = 0
KSC1 170134Z 04008KT 11/06 A3001 RMK A01 T01050062  RH  075%=      5-min Rain = 0
KSC1 170135Z 03007KT 11/06 A3001 RMK A01 T01050062  RH  075%=      5-min Rain = 0
KSC1 170136Z 04005KT 11/06 A3001 RMK A01 T01050062  RH  075%=      5-min Rain = 0
KSC1 170137Z 03005KT 10/06 A3001 RMK A01 T01040062  RH  075%=      5-min Rain = 0
KSC1 170138Z 03007KT 10/06 A3001 RMK A01 T01030062  RH  076%=      5-min Rain = 0
KSC1 170139Z 03005KT 10/06 A3001 RMK A01 T01040063  RH  076%=      5-min Rain = 0
KSC1 170140Z 05005KT 10/06 A3001 RMK A01 T01030063  RH  076%=      5-min Rain = 0
KSC1 170141Z 05004KT 10/06 A3001 RMK A01 T01030063  RH  076%=      5-min Rain = 0
KSC1 170142Z 04004KT 10/06 A3001 RMK A01 T01030063  RH  076%=      5-min Rain = 0
KSC1 170143Z 04005KT 10/06 A3002 RMK A01 T01020063  RH  077%=      5-min Rain = 0
KSC1 170144Z 06005KT 10/06 A3002 RMK A01 T01020063  RH  077%=      5-min Rain = 0
KSC1 170145Z 07004KT 10/06 A3002 RMK A01 T01020063  RH  077%=      5-min Rain = 0
KSC1 170146Z 08003KT 10/06 A3002 RMK A01 T01020063  RH  077%=      5-min Rain = 0
KSC1 170147Z 09004KT 10/06 A3003 RMK A01 T01020063  RH  077%=      5-min Rain = 0
KSC1 170148Z 09004KT 10/06 A3003 RMK A01 T01020063  RH  077%=      5-min Rain = 0
KSC1 170149Z 07003KT 10/06 A3003 RMK A01 T01020063  RH  077%=      5-min Rain = 0
KSC1 170150Z 07002KT 10/06 A3003 RMK A01 T01020063  RH  077%=      5-min Rain = 0
KSC1 170151Z 07002KT 10/06 A3003 RMK A01 T01020063  RH  077%=      5-min Rain = 0
KSC1 170152Z 07003KT 10/06 A3003 RMK A01 T01020063  RH  077%=      5-min Rain = 0
KSC1 170153Z 05004KT 10/06 A3003 RMK A01 T01030063  RH  076%=      5-min Rain = 0
KSC1 170154Z 05004KT 10/06 A3003 RMK A01 T01030063  RH  076%=      5-min Rain = 0
KSC1 170155Z 05004KT 10/06 A3003 RMK A01 T01030064  RH  077%=      5-min Rain = 0
KSC1 170156Z 04006KT 10/06 A3003 RMK A01 T01030064  RH  077%=      5-min Rain = 0
KSC1 170157Z 03005KT 10/06 A3002 RMK A01 T01030064  RH  077%=      5-min Rain = 0
KSC1 170158Z 04005KT 10/06 A3002 RMK A01 T01030064  RH  076%=      5-min Rain = 0
KSC1 170159Z 04006KT 10/06 A3002 RMK A01 T01030063  RH  076%=      5-min Rain = 0
KSC1 170200Z 04006KT 10/06 A3002 RMK A01 T01030064  RH  076%=      5-min Rain = 0
KSC1 170201Z 03006KT 10/06 A3002 RMK A01 T01030064  RH  076%=      5-min Rain = 0
KSC1 170202Z 04006KT 10/06 A3002 RMK A01 T01030064  RH  076%=      5-min Rain = 0
KSC1 170203Z 03006KT 10/06 A3002 RMK A01 T01030064  RH  076%=      5-min Rain = 0
KSC1 170204Z 02005KT 10/06 A3002 RMK A01 T01020063  RH  077%=      5-min Rain = 0
KSC1 170205Z 02005KT 10/06 A3003 RMK A01 T01020063  RH  077%=      5-min Rain = 0
KSC1 170206Z 03006KT 10/06 A3003 RMK A01 T01010063  RH  077%=      5-min Rain = 0
KSC1 170207Z 02006KT 10/06 A3003 RMK A01 T01010063  RH  078%=      5-min Rain = 0
KSC1 170208Z 02006KT 10/06 A3003 RMK A01 T01010063  RH  078%=      5-min Rain = 0
KSC1 170209Z 02005KT 10/06 A3003 RMK A01 T01010063  RH  077%=      5-min Rain = 0
KSC1 170210Z 02005KT 10/06 A3003 RMK A01 T01010063  RH  077%=      5-min Rain = 0
KSC1 170211Z 03005KT 10/06 A3003 RMK A01 T01010063  RH  077%=      5-min Rain = 0
KSC1 170212Z 02005KT 10/06 A3003 RMK A01 T01010064  RH  078%=      5-min Rain = 0
KSC1 170213Z 02006KT 10/06 A3004 RMK A01 T01010064  RH  078%=      5-min Rain = 0
KSC1 170214Z 03006KT 10/06 A3004 RMK A01 T01010064  RH  078%=      5-min Rain = 0
KSC1 170215Z 03005KT 10/06 A3004 RMK A01 T01010064  RH  078%=      5-min Rain = 0
KSC1 170216Z 03005KT 10/06 A3004 RMK A01 T01010064  RH  078%=      5-min Rain = 0
KSC1 170217Z 02005KT 10/06 A3004 RMK A01 T01000064  RH  078%=      5-min Rain = 0
KSC1 170218Z 03006KT 10/06 A3004 RMK A01 T01000064  RH  078%=      5-min Rain = 0
KSC1 170219Z 02007KT 10/06 A3004 RMK A01 T01000064  RH  078%=      5-min Rain = 0
KSC1 170220Z 02007KT 10/06 A3004 RMK A01 T01000064  RH  078%=      5-min Rain = 0
KSC1 170221Z 03006KT 10/07 A3003 RMK A01 T01010065  RH  078%=      5-min Rain = 0
KSC1 170222Z 02007KT 10/07 A3003 RMK A01 T01010065  RH  078%=      5-min Rain = 0
KSC1 170223Z 03006KT 10/07 A3003 RMK A01 T01010065  RH  078%=      5-min Rain = 0
KSC1 170224Z 03007KT 10/07 A3003 RMK A01 T01010065  RH  078%=      5-min Rain = 0
KSC1 170225Z 03008KT 10/07 A3003 RMK A01 T01020065  RH  078%=      5-min Rain = 0
KSC1 170226Z 03006KT 10/07 A3004 RMK A01 T01020065  RH  078%=      5-min Rain = 0
KSC1 170227Z 03007KT 10/07 A3004 RMK A01 T01020065  RH  078%=      5-min Rain = 0
KSC1 170228Z 02006KT 10/07 A3004 RMK A01 T01030065  RH  077%=      5-min Rain = 0
KSC1 170229Z 02008KT 10/07 A3004 RMK A01 T01030065  RH  077%=      5-min Rain = 0
KSC1 170230Z 02007KT 10/07 A3004 RMK A01 T01040065  RH  077%=      5-min Rain = 0
KSC1 170231Z 03006KT 10/07 A3004 RMK A01 T01040065  RH  077%=      5-min Rain = 0
KSC1 170232Z 02007KT 10/07 A3004 RMK A01 T01040065  RH  077%=      5-min Rain = 0
KSC1 170233Z 03007KT 10/07 A3004 RMK A01 T01040065  RH  077%=      5-min Rain = 0
KSC1 170234Z 03010KT 10/07 A3004 RMK A01 T01040065  RH  077%=      5-min Rain = 0
KSC1 170235Z 03009G14KT 10/07 A3004 RMK A01 T01040065  RH  076%=      5-min Rain = 0
KSC1 170236Z 03007KT 11/07 A3004 RMK A01 T01050065  RH  076%=      5-min Rain = 0
KSC1 170237Z 02007KT 11/07 A3004 RMK A01 T01050065  RH  076%=      5-min Rain = 0
KSC1 170238Z 02006KT 11/07 A3004 RMK A01 T01050065  RH  076%=      5-min Rain = 0
KSC1 170239Z 03006KT 11/07 A3004 RMK A01 T01050065  RH  076%=      5-min Rain = 0
KSC1 170240Z 03007KT 10/07 A3004 RMK A01 T01040065  RH  076%=      5-min Rain = 0
KSC1 170241Z 03008KT 10/06 A3004 RMK A01 T01040064  RH  077%=      5-min Rain = 0
KSC1 170242Z 03007KT 10/06 A3004 RMK A01 T01040064  RH  076%=      5-min Rain = 0
KSC1 170243Z 03006KT 10/06 A3004 RMK A01 T01040064  RH  076%=      5-min Rain = 0
KSC1 170244Z 03007KT 10/06 A3004 RMK A01 T01040064  RH  076%=      5-min Rain = 0
KSC1 170245Z 03007KT 10/06 A3004 RMK A01 T01040063  RH  076%=      5-min Rain = 0
KSC1 170246Z 03007KT 10/06 A3004 RMK A01 T01040063  RH  076%=      5-min Rain = 0
KSC1 170247Z 03006KT 11/06 A3004 RMK A01 T01050063  RH  076%=      5-min Rain = 0
KSC1 170248Z 02007KT 10/06 A3005 RMK A01 T01040063  RH  076%=      5-min Rain = 0
KSC1 170249Z 03007KT 10/06 A3005 RMK A01 T01040063  RH  076%=      5-min Rain = 0
KSC1 170250Z 02007KT 10/06 A3005 RMK A01 T01040063  RH  076%=      5-min Rain = 0
KSC1 170251Z 02006KT 10/06 A3005 RMK A01 T01040062  RH  076%=      5-min Rain = 0
KSC1 170252Z 03008KT 10/06 A3005 RMK A01 T01040062  RH  075%=      5-min Rain = 0
KSC1 170253Z 02007KT 10/06 A3005 RMK A01 T01040062  RH  075%=      5-min Rain = 0
KSC1 170254Z 02007KT 10/06 A3005 RMK A01 T01040062  RH  075%=      5-min Rain = 0
KSC1 170255Z 02009KT 10/06 A3005 RMK A01 T01030061  RH  075%=      5-min Rain = 0
KSC1 170256Z 01006KT 10/06 A3005 RMK A01 T01030061  RH  075%=      5-min Rain = 0
KSC1 170257Z 02009KT 10/06 A3005 RMK A01 T01040061  RH  075%=      5-min Rain = 0
KSC1 170258Z 02009KT 10/06 A3005 RMK A01 T01040060  RH  074%=      5-min Rain = 0
KSC1 170259Z 01010KT 10/06 A3005 RMK A01 T01040059  RH  074%=      5-min Rain = 0
KSC1 170300Z 02010KT 10/06 A3005 RMK A01 T01040059  RH  074%=      5-min Rain = 0
KSC1 170301Z 02011KT 10/06 A3005 RMK A01 T01040058  RH  073%=      5-min Rain = 0
KSC1 170302Z 02009KT 11/06 A3005 RMK A01 T01050057  RH  072%=      5-min Rain = 0
KSC1 170303Z 02008KT 11/06 A3006 RMK A01 T01050057  RH  072%=      5-min Rain = 0
KSC1 170304Z 01009KT 11/06 A3006 RMK A01 T01050057  RH  072%=      5-min Rain = 0
KSC1 170305Z 02011KT 11/06 A3006 RMK A01 T01050057  RH  072%=      5-min Rain = 0
KSC1 170306Z 02010KT 11/06 A3006 RMK A01 T01050056  RH  072%=      5-min Rain = 0
KSC1 170307Z 02010KT 11/06 A3006 RMK A01 T01050055  RH  071%=      5-min Rain = 0
KSC1 170308Z 02008KT 11/05 A3005 RMK A01 T01050054  RH  071%=      5-min Rain = 0
KSC1 170309Z 03007KT 11/05 A3005 RMK A01 T01050054  RH  071%=      5-min Rain = 0
KSC1 170310Z 03008KT 10/05 A3005 RMK A01 T01040054  RH  071%=      5-min Rain = 0
KSC1 170311Z 02008KT 10/05 A3005 RMK A01 T01040054  RH  071%=      5-min Rain = 0
KSC1 170312Z 02006G11KT 10/05 A3005 RMK A01 T01040054  RH  071%=      5-min Rain = 0
KSC1 170313Z 03009KT 10/05 A3005 RMK A01 T01030054  RH  071%=      5-min Rain = 0
KSC1 170314Z 03009KT 10/05 A3006 RMK A01 T01030053  RH  071%=      5-min Rain = 0
KSC1 170315Z 02007KT 10/05 A3006 RMK A01 T01030052  RH  071%=      5-min Rain = 0
KSC1 170316Z 03007KT 10/05 A3006 RMK A01 T01030052  RH  071%=      5-min Rain = 0
KSC1 170317Z 02006KT 10/05 A3006 RMK A01 T01040052  RH  071%=      5-min Rain = 0
KSC1 170318Z 02009KT 10/05 A3006 RMK A01 T01030052  RH  070%=      5-min Rain = 0
KSC1 170319Z 03009KT 10/05 A3006 RMK A01 T01030051  RH  070%=      5-min Rain = 0
KSC1 170320Z 02009KT 10/05 A3007 RMK A01 T01030051  RH  070%=      5-min Rain = 0
KSC1 170321Z 02009KT 10/05 A3007 RMK A01 T01030051  RH  070%=      5-min Rain = 0
KSC1 170322Z 02007KT 10/05 A3007 RMK A01 T01030051  RH  070%=      5-min Rain = 0
KSC1 170323Z 01006KT 10/05 A3008 RMK A01 T01030050  RH  070%=      5-min Rain = 0
KSC1 170324Z 02006KT 10/05 A3008 RMK A01 T01040051  RH  070%=      5-min Rain = 0
KSC1 170325Z 02006KT 10/05 A3008 RMK A01 T01030051  RH  070%=      5-min Rain = 0
KSC1 170326Z 02006KT 10/05 A3008 RMK A01 T01030051  RH  070%=      5-min Rain = 0
KSC1 170327Z 02008KT 10/05 A3008 RMK A01 T01030051  RH  070%=      5-min Rain = 0
KSC1 170328Z 03008KT 10/05 A3007 RMK A01 T01030050  RH  070%=      5-min Rain = 0
KSC1 170329Z 02007KT 10/05 A3007 RMK A01 T01030050  RH  070%=      5-min Rain = 0
KSC1 170330Z 02009KT 10/05 A3007 RMK A01 T01030050  RH  069%=      5-min Rain = 0
KSC1 170331Z 03008KT 10/05 A3007 RMK A01 T01030050  RH  069%=      5-min Rain = 0
KSC1 170332Z 02008KT 10/05 A3007 RMK A01 T01030050  RH  069%=      5-min Rain = 0
KSC1 170333Z 02010KT 10/05 A3007 RMK A01 T01030050  RH  069%=      5-min Rain = 0
KSC1 170334Z 03008KT 10/05 A3007 RMK A01 T01030049  RH  069%=      5-min Rain = 0
KSC1 170335Z 02008KT 10/05 A3007 RMK A01 T01030048  RH  069%=      5-min Rain = 0
KSC1 170336Z 03008G13KT 10/05 A3007 RMK A01 T01030048  RH  069%=      5-min Rain = 0
KSC1 170337Z 02009G14KT 10/05 A3007 RMK A01 T01030048  RH  069%=      5-min Rain = 0
KSC1 170338Z 02008KT 10/05 A3007 RMK A01 T01030048  RH  069%=      5-min Rain = 0
KSC1 170339Z 02010KT 10/05 A3008 RMK A01 T01030048  RH  069%=      5-min Rain = 0
KSC1 170340Z 02009G14KT 10/05 A3007 RMK A01 T01030047  RH  068%=      5-min Rain = 0
KSC1 170341Z 02009KT 10/05 A3007 RMK A01 T01030047  RH  068%=      5-min Rain = 0
KSC1 170342Z 02008KT 10/05 A3007 RMK A01 T01030047  RH  068%=      5-min Rain = 0
KSC1 170343Z 02008KT 10/05 A3007 RMK A01 T01030047  RH  068%=      5-min Rain = 0
KSC1 170344Z 01009KT 10/05 A3007 RMK A01 T01030047  RH  068%=      5-min Rain = 0
KSC1 170345Z 02008KT 10/05 A3007 RMK A01 T01020047  RH  069%=      5-min Rain = 0
KSC1 170346Z 01009G14KT 10/05 A3008 RMK A01 T01020047  RH  069%=      5-min Rain = 0
KSC1 170347Z 02007KT 10/05 A3008 RMK A01 T01020047  RH  069%=      5-min Rain = 0
KSC1 170348Z 02006KT 10/05 A3008 RMK A01 T01030047  RH  069%=      5-min Rain = 0
KSC1 170349Z 02008G13KT 10/05 A3008 RMK A01 T01030048  RH  069%=      5-min Rain = 0
KSC1 170350Z 01012KT 10/05 A3008 RMK A01 T01020047  RH  069%=      5-min Rain = 0
KSC1 170351Z 02009KT 10/05 A3008 RMK A01 T01030047  RH  069%=      5-min Rain = 0
KSC1 170352Z 02008KT 10/05 A3008 RMK A01 T01030047  RH  068%=      5-min Rain = 0
KSC1 170353Z 01006KT 10/05 A3008 RMK A01 T01030047  RH  068%=      5-min Rain = 0
KSC1 170354Z 01007KT 10/05 A3008 RMK A01 T01030048  RH  069%=      5-min Rain = 0
KSC1 170355Z 01009KT 10/05 A3008 RMK A01 T01030048  RH  069%=      5-min Rain = 0
KSC1 170356Z 02011KT 10/05 A3008 RMK A01 T01030048  RH  069%=      5-min Rain = 0
KSC1 170357Z 01009KT 10/05 A3008 RMK A01 T01020048  RH  069%=      5-min Rain = 0
KSC1 170358Z 02010KT 10/05 A3008 RMK A01 T01030048  RH  069%=      5-min Rain = 0
KSC1 170359Z 01011KT 10/05 A3008 RMK A01 T01030048  RH  069%=      5-min Rain = 0
KSC1 170400Z 02009KT 10/05 A3008 RMK A01 T01020048  RH  069%=      5-min Rain = 0
KSC1 170401Z 01009KT 10/05 A3008 RMK A01 T01020048  RH  069%=      5-min Rain = 0
KSC1 170402Z 01012KT 10/05 A3008 RMK A01 T01020048  RH  069%=      5-min Rain = 0
KSC1 170403Z 01011KT 10/05 A3008 RMK A01 T01020048  RH  069%=      5-min Rain = 0
KSC1 170404Z 01011KT 10/05 A3008 RMK A01 T01030048  RH  069%=      5-min Rain = 0
KSC1 170405Z 01011KT 10/05 A3009 RMK A01 T01030048  RH  069%=      5-min Rain = 0
KSC1 170406Z 02012KT 10/05 A3009 RMK A01 T01020048  RH  069%=      5-min Rain = 0
KSC1 170407Z 02010KT 10/05 A3009 RMK A01 T01020048  RH  069%=      5-min Rain = 0
KSC1 170408Z 02013KT 10/05 A3008 RMK A01 T01020048  RH  069%=      5-min Rain = 0
KSC1 170409Z 01011KT 10/05 A3008 RMK A01 T01030048  RH  069%=      5-min Rain = 0
KSC1 170410Z 02009KT 10/05 A3008 RMK A01 T01020048  RH  069%=      5-min Rain = 0
KSC1 170411Z 02010G16KT 10/05 A3008 RMK A01 T01020048  RH  069%=      5-min Rain = 0
KSC1 170412Z 01010KT 10/05 A3008 RMK A01 T01020048  RH  069%=      5-min Rain = 0
KSC1 170413Z 01008KT 10/05 A3008 RMK A01 T01020048  RH  069%=      5-min Rain = 0
KSC1 170414Z 02013KT 10/05 A3008 RMK A01 T01020048  RH  069%=      5-min Rain = 0
KSC1 170415Z 02014G19KT 10/05 A3008 RMK A01 T01020047  RH  069%=      5-min Rain = 0
KSC1 170416Z 02011G16KT 10/05 A3008 RMK A01 T01020048  RH  069%=      5-min Rain = 0
KSC1 170417Z 02014KT 10/05 A3008 RMK A01 T01020048  RH  069%=      5-min Rain = 0
KSC1 170418Z 01011KT 10/05 A3008 RMK A01 T01020048  RH  069%=      5-min Rain = 0
KSC1 170419Z 01012KT 10/05 A3008 RMK A01 T01020048  RH  069%=      5-min Rain = 0
KSC1 170420Z 01010KT 10/05 A3008 RMK A01 T01020048  RH  069%=      5-min Rain = 0
KSC1 170421Z 02010KT 10/05 A3008 RMK A01 T01020048  RH  069%=      5-min Rain = 0
KSC1 170422Z 01010KT 10/05 A3009 RMK A01 T01010047  RH  069%=      5-min Rain = 0
KSC1 170423Z 01011KT 10/05 A3009 RMK A01 T01010047  RH  069%=      5-min Rain = 0
KSC1 170424Z 01011KT 10/05 A3009 RMK A01 T01010047  RH  069%=      5-min Rain = 0
KSC1 170425Z 01010KT 10/05 A3009 RMK A01 T01010048  RH  069%=      5-min Rain = 0
KSC1 170426Z 01009KT 10/05 A3009 RMK A01 T01010048  RH  070%=      5-min Rain = 0
KSC1 170427Z 01011KT 10/05 A3009 RMK A01 T01010049  RH  070%=      5-min Rain = 0
KSC1 170428Z 02009KT 10/05 A3009 RMK A01 T01010049  RH  070%=      5-min Rain = 0
KSC1 170429Z 01008KT 10/05 A3009 RMK A01 T01010049  RH  070%=      5-min Rain = 0
KSC1 170430Z 01008KT 10/05 A3009 RMK A01 T01000050  RH  071%=      5-min Rain = 0
KSC1 170431Z 00009KT 10/05 A3009 RMK A01 T01000050  RH  071%=      5-min Rain = 0
KSC1 170432Z 01008G13KT 10/05 A3009 RMK A01 T01000051  RH  071%=      5-min Rain = 0
KSC1 170433Z 01012KT 10/05 A3009 RMK A01 T01000050  RH  071%=      5-min Rain = 0
KSC1 170434Z 01013KT 10/05 A3009 RMK A01 T01000049  RH  071%=      5-min Rain = 0
KSC1 170435Z 01013KT 10/05 A3009 RMK A01 T01000048  RH  070%=      5-min Rain = 0
KSC1 170436Z 00014KT 10/05 A3009 RMK A01 T01000048  RH  070%=      5-min Rain = 0
KSC1 170437Z 36011G16KT 10/05 A3009 RMK A01 T01000048  RH  070%=      5-min Rain = 0
KSC1 170438Z 00012KT 10/05 A3009 RMK A01 T01000048  RH  070%=      5-min Rain = 0
KSC1 170439Z 00010KT 10/05 A3009 RMK A01 T00990048  RH  071%=      5-min Rain = 0
KSC1 170440Z 01009KT 10/05 A3009 RMK A01 T00990049  RH  071%=      5-min Rain = 0
KSC1 170441Z 01008G13KT 10/05 A3009 RMK A01 T00980049  RH  071%=      5-min Rain = 0
KSC1 170442Z 01011KT 10/05 A3009 RMK A01 T00980049  RH  071%=      5-min Rain = 0
KSC1 170443Z 00008KT 10/05 A3009 RMK A01 T00980049  RH  071%=      5-min Rain = 0
KSC1 170444Z 01007KT 10/05 A3009 RMK A01 T00970049  RH  072%=      5-min Rain = 0
KSC1 170445Z 01011G16KT 10/05 A3009 RMK A01 T00970049  RH  072%=      5-min Rain = 0
KSC1 170446Z 01010KT 10/05 A3009 RMK A01 T00970049  RH  072%=      5-min Rain = 0
KSC1 170447Z 01011G16KT 10/05 A3009 RMK A01 T00960049  RH  072%=      5-min Rain = 0
KSC1 170448Z 01013KT 10/05 A3009 RMK A01 T00960049  RH  072%=      5-min Rain = 0
KSC1 170449Z 00013G18KT 10/05 A3009 RMK A01 T00960049  RH  072%=      5-min Rain = 0
KSC1 170450Z 01013KT 10/05 A3009 RMK A01 T00960049  RH  072%=      5-min Rain = 0
KSC1 170451Z 01016KT 10/05 A3009 RMK A01 T00960049  RH  072%=      5-min Rain = 0
KSC1 170452Z 02018KT 10/05 A3009 RMK A01 T00950048  RH  072%=      5-min Rain = 0
KSC1 170453Z 00014KT 10/05 A3009 RMK A01 T00950047  RH  072%=      5-min Rain = 0
KSC1 170454Z 01014G21KT 10/05 A3009 RMK A01 T00950048  RH  072%=      5-min Rain = 0
KSC1 170455Z 02014G20KT 09/05 A3009 RMK A01 T00940047  RH  072%=      5-min Rain = 0
KSC1 170456Z 02014KT 09/05 A3009 RMK A01 T00940047  RH  072%=      5-min Rain = 0
KSC1 170457Z 02011KT 09/05 A3009 RMK A01 T00940047  RH  072%=      5-min Rain = 0
KSC1 170458Z 01011KT 09/05 A3009 RMK A01 T00940047  RH  072%=      5-min Rain = 0
KSC1 170459Z 01010G19KT 09/05 A3009 RMK A01 T00930046  RH  072%=      5-min Rain = 0

Page generated in 0.0662 seconds.